<?xml version="1.0" encoding="UTF-8" standalone="no" ?>
<gpx xmlns="http://www.topografix.com/GPX/1/1" xmlns:xsi="http://www.w3.org/2001/XMLSchema-instance" xsi:schemaLocation="http://www.topografix.com/GPX/1/1 http://www.topografix.com/GPX/1/1/gpx.xsd" version="1.1" creator="VisuGPX - https://www.visugpx.com">
  <metadata>
    <name>en dextre avec Dipti</name>
    <desc><![CDATA[après une semaine de repos, reprise avec les  étangs du roi]]></desc>
  </metadata>
  <trk>
    <name><![CDATA[Untitled]]></name>
    <trkseg>
      <trkpt lat="48.70302" lon="1.75311">
        <ele>179.80000305176</ele>
        <time>2014-07-18T07:44:51.000Z</time>
      </trkpt>
      <trkpt lat="48.70307" lon="1.75326">
        <ele>179.80000305176</ele>
        <time>2014-07-18T07:44:55.000Z</time>
      </trkpt>
      <trkpt lat="48.703" lon="1.75315">
        <ele>179.80000305176</ele>
        <time>2014-07-18T07:45:04.000Z</time>
      </trkpt>
      <trkpt lat="48.70302" lon="1.75317">
        <ele>179.80000305176</ele>
        <time>2014-07-18T07:45:10.000Z</time>
      </trkpt>
      <trkpt lat="48.70301" lon="1.75316">
        <ele>179.80000305176</ele>
        <time>2014-07-18T07:45:12.000Z</time>
      </trkpt>
      <trkpt lat="48.70303" lon="1.75317">
        <ele>179.80000305176</ele>
        <time>2014-07-18T07:45:17.000Z</time>
      </trkpt>
      <trkpt lat="48.70303" lon="1.75318">
        <ele>179.80000305176</ele>
        <time>2014-07-18T07:45:18.000Z</time>
      </trkpt>
      <trkpt lat="48.70303" lon="1.75318">
        <ele>179.80000305176</ele>
        <time>2014-07-18T07:45:24.000Z</time>
      </trkpt>
      <trkpt lat="48.70299" lon="1.75318">
        <ele>179.80000305176</ele>
        <time>2014-07-18T07:45:47.000Z</time>
      </trkpt>
      <trkpt lat="48.70306" lon="1.75316">
        <ele>180</ele>
        <time>2014-07-18T07:45:54.000Z</time>
      </trkpt>
      <trkpt lat="48.70302" lon="1.75312">
        <ele>179.80000305176</ele>
        <time>2014-07-18T07:46:05.000Z</time>
      </trkpt>
      <trkpt lat="48.70306" lon="1.75314">
        <ele>180</ele>
        <time>2014-07-18T07:46:08.000Z</time>
      </trkpt>
      <trkpt lat="48.70305" lon="1.75308">
        <ele>180</ele>
        <time>2014-07-18T07:46:14.000Z</time>
      </trkpt>
      <trkpt lat="48.70304" lon="1.75308">
        <ele>180</ele>
        <time>2014-07-18T07:46:15.000Z</time>
      </trkpt>
      <trkpt lat="48.703" lon="1.75303">
        <ele>180</ele>
        <time>2014-07-18T07:46:20.000Z</time>
      </trkpt>
      <trkpt lat="48.70297" lon="1.75298">
        <ele>180</ele>
        <time>2014-07-18T07:46:24.000Z</time>
      </trkpt>
      <trkpt lat="48.70287" lon="1.75291">
        <ele>179.80000305176</ele>
        <time>2014-07-18T07:46:31.000Z</time>
      </trkpt>
      <trkpt lat="48.70283" lon="1.7529">
        <ele>179.60000610352</ele>
        <time>2014-07-18T07:46:35.000Z</time>
      </trkpt>
      <trkpt lat="48.70273" lon="1.75284">
        <ele>179.60000610352</ele>
        <time>2014-07-18T07:46:43.000Z</time>
      </trkpt>
      <trkpt lat="48.70261" lon="1.75273">
        <ele>179.19999694824</ele>
        <time>2014-07-18T07:46:53.000Z</time>
      </trkpt>
      <trkpt lat="48.70254" lon="1.75269">
        <ele>178.80000305176</ele>
        <time>2014-07-18T07:47:00.000Z</time>
      </trkpt>
      <trkpt lat="48.70249" lon="1.75265">
        <ele>178.60000610352</ele>
        <time>2014-07-18T07:47:06.000Z</time>
      </trkpt>
      <trkpt lat="48.70241" lon="1.75258">
        <ele>178.39999389648</ele>
        <time>2014-07-18T07:47:14.000Z</time>
      </trkpt>
      <trkpt lat="48.70236" lon="1.75254">
        <ele>178.19999694824</ele>
        <time>2014-07-18T07:47:18.000Z</time>
      </trkpt>
      <trkpt lat="48.70227" lon="1.75252">
        <ele>177.80000305176</ele>
        <time>2014-07-18T07:47:23.000Z</time>
      </trkpt>
      <trkpt lat="48.70218" lon="1.75244">
        <ele>177.39999389648</ele>
        <time>2014-07-18T07:47:33.000Z</time>
      </trkpt>
      <trkpt lat="48.7021" lon="1.75242">
        <ele>177</ele>
        <time>2014-07-18T07:47:40.000Z</time>
      </trkpt>
      <trkpt lat="48.70206" lon="1.75244">
        <ele>176.80000305176</ele>
        <time>2014-07-18T07:47:44.000Z</time>
      </trkpt>
      <trkpt lat="48.70199" lon="1.75245">
        <ele>176.60000610352</ele>
        <time>2014-07-18T07:47:50.000Z</time>
      </trkpt>
      <trkpt lat="48.70197" lon="1.75247">
        <ele>176.39999389648</ele>
        <time>2014-07-18T07:47:53.000Z</time>
      </trkpt>
      <trkpt lat="48.70188" lon="1.75251">
        <ele>176</ele>
        <time>2014-07-18T07:48:01.000Z</time>
      </trkpt>
      <trkpt lat="48.70178" lon="1.75256">
        <ele>176</ele>
        <time>2014-07-18T07:48:09.000Z</time>
      </trkpt>
      <trkpt lat="48.7017" lon="1.7526">
        <ele>175.80000305176</ele>
        <time>2014-07-18T07:48:17.000Z</time>
      </trkpt>
      <trkpt lat="48.70162" lon="1.75267">
        <ele>175.60000610352</ele>
        <time>2014-07-18T07:48:25.000Z</time>
      </trkpt>
      <trkpt lat="48.70156" lon="1.75268">
        <ele>175.60000610352</ele>
        <time>2014-07-18T07:48:29.000Z</time>
      </trkpt>
      <trkpt lat="48.70149" lon="1.75272">
        <ele>175.60000610352</ele>
        <time>2014-07-18T07:48:35.000Z</time>
      </trkpt>
      <trkpt lat="48.70141" lon="1.75276">
        <ele>175.39999389648</ele>
        <time>2014-07-18T07:48:41.000Z</time>
      </trkpt>
      <trkpt lat="48.70133" lon="1.75279">
        <ele>175</ele>
        <time>2014-07-18T07:48:48.000Z</time>
      </trkpt>
      <trkpt lat="48.70123" lon="1.75284">
        <ele>174.60000610352</ele>
        <time>2014-07-18T07:48:56.000Z</time>
      </trkpt>
      <trkpt lat="48.70117" lon="1.75286">
        <ele>174.39999389648</ele>
        <time>2014-07-18T07:49:02.000Z</time>
      </trkpt>
      <trkpt lat="48.70111" lon="1.75289">
        <ele>174</ele>
        <time>2014-07-18T07:49:07.000Z</time>
      </trkpt>
      <trkpt lat="48.70102" lon="1.75295">
        <ele>173.60000610352</ele>
        <time>2014-07-18T07:49:14.000Z</time>
      </trkpt>
      <trkpt lat="48.70093" lon="1.753">
        <ele>173.39999389648</ele>
        <time>2014-07-18T07:49:22.000Z</time>
      </trkpt>
      <trkpt lat="48.70084" lon="1.75304">
        <ele>173.19999694824</ele>
        <time>2014-07-18T07:49:28.000Z</time>
      </trkpt>
      <trkpt lat="48.70079" lon="1.75305">
        <ele>173</ele>
        <time>2014-07-18T07:49:31.000Z</time>
      </trkpt>
      <trkpt lat="48.70071" lon="1.7531">
        <ele>172.80000305176</ele>
        <time>2014-07-18T07:49:38.000Z</time>
      </trkpt>
      <trkpt lat="48.70063" lon="1.75313">
        <ele>172.80000305176</ele>
        <time>2014-07-18T07:49:45.000Z</time>
      </trkpt>
      <trkpt lat="48.70051" lon="1.75316">
        <ele>172.39999389648</ele>
        <time>2014-07-18T07:49:54.000Z</time>
      </trkpt>
      <trkpt lat="48.70046" lon="1.75319">
        <ele>172.39999389648</ele>
        <time>2014-07-18T07:49:59.000Z</time>
      </trkpt>
      <trkpt lat="48.70037" lon="1.75326">
        <ele>171.80000305176</ele>
        <time>2014-07-18T07:50:07.000Z</time>
      </trkpt>
      <trkpt lat="48.7003" lon="1.75329">
        <ele>171.60000610352</ele>
        <time>2014-07-18T07:50:13.000Z</time>
      </trkpt>
      <trkpt lat="48.70022" lon="1.75332">
        <ele>171.39999389648</ele>
        <time>2014-07-18T07:50:20.000Z</time>
      </trkpt>
      <trkpt lat="48.70014" lon="1.75336">
        <ele>171.39999389648</ele>
        <time>2014-07-18T07:50:27.000Z</time>
      </trkpt>
      <trkpt lat="48.70006" lon="1.7534">
        <ele>171.19999694824</ele>
        <time>2014-07-18T07:50:34.000Z</time>
      </trkpt>
      <trkpt lat="48.69997" lon="1.75343">
        <ele>171.19999694824</ele>
        <time>2014-07-18T07:50:41.000Z</time>
      </trkpt>
      <trkpt lat="48.69987" lon="1.75347">
        <ele>171.19999694824</ele>
        <time>2014-07-18T07:50:48.000Z</time>
      </trkpt>
      <trkpt lat="48.69978" lon="1.75351">
        <ele>171</ele>
        <time>2014-07-18T07:50:57.000Z</time>
      </trkpt>
      <trkpt lat="48.69969" lon="1.75356">
        <ele>171</ele>
        <time>2014-07-18T07:51:05.000Z</time>
      </trkpt>
      <trkpt lat="48.69961" lon="1.7536">
        <ele>171.39999389648</ele>
        <time>2014-07-18T07:51:12.000Z</time>
      </trkpt>
      <trkpt lat="48.69952" lon="1.75363">
        <ele>171.80000305176</ele>
        <time>2014-07-18T07:51:19.000Z</time>
      </trkpt>
      <trkpt lat="48.69945" lon="1.75369">
        <ele>172</ele>
        <time>2014-07-18T07:51:26.000Z</time>
      </trkpt>
      <trkpt lat="48.69937" lon="1.75372">
        <ele>172.39999389648</ele>
        <time>2014-07-18T07:51:33.000Z</time>
      </trkpt>
      <trkpt lat="48.69928" lon="1.75375">
        <ele>172.19999694824</ele>
        <time>2014-07-18T07:51:39.000Z</time>
      </trkpt>
      <trkpt lat="48.69921" lon="1.75377">
        <ele>172.19999694824</ele>
        <time>2014-07-18T07:51:45.000Z</time>
      </trkpt>
      <trkpt lat="48.69913" lon="1.75384">
        <ele>172</ele>
        <time>2014-07-18T07:51:52.000Z</time>
      </trkpt>
      <trkpt lat="48.69901" lon="1.75388">
        <ele>171.60000610352</ele>
        <time>2014-07-18T07:52:00.000Z</time>
      </trkpt>
      <trkpt lat="48.69892" lon="1.75391">
        <ele>171.19999694824</ele>
        <time>2014-07-18T07:52:07.000Z</time>
      </trkpt>
      <trkpt lat="48.69884" lon="1.75395">
        <ele>171</ele>
        <time>2014-07-18T07:52:13.000Z</time>
      </trkpt>
      <trkpt lat="48.69877" lon="1.75398">
        <ele>170.80000305176</ele>
        <time>2014-07-18T07:52:19.000Z</time>
      </trkpt>
      <trkpt lat="48.69867" lon="1.75404">
        <ele>170.39999389648</ele>
        <time>2014-07-18T07:52:27.000Z</time>
      </trkpt>
      <trkpt lat="48.69859" lon="1.7541">
        <ele>170</ele>
        <time>2014-07-18T07:52:34.000Z</time>
      </trkpt>
      <trkpt lat="48.69853" lon="1.75413">
        <ele>169.60000610352</ele>
        <time>2014-07-18T07:52:40.000Z</time>
      </trkpt>
      <trkpt lat="48.69845" lon="1.75416">
        <ele>169.19999694824</ele>
        <time>2014-07-18T07:52:47.000Z</time>
      </trkpt>
      <trkpt lat="48.69839" lon="1.75418">
        <ele>169</ele>
        <time>2014-07-18T07:52:52.000Z</time>
      </trkpt>
      <trkpt lat="48.6983" lon="1.75418">
        <ele>168.60000610352</ele>
        <time>2014-07-18T07:52:58.000Z</time>
      </trkpt>
      <trkpt lat="48.6982" lon="1.75421">
        <ele>168.19999694824</ele>
        <time>2014-07-18T07:53:05.000Z</time>
      </trkpt>
      <trkpt lat="48.69812" lon="1.75426">
        <ele>167.80000305176</ele>
        <time>2014-07-18T07:53:12.000Z</time>
      </trkpt>
      <trkpt lat="48.69806" lon="1.75432">
        <ele>167.19999694824</ele>
        <time>2014-07-18T07:53:18.000Z</time>
      </trkpt>
      <trkpt lat="48.69795" lon="1.75438">
        <ele>166.60000610352</ele>
        <time>2014-07-18T07:53:27.000Z</time>
      </trkpt>
      <trkpt lat="48.69789" lon="1.75442">
        <ele>166</ele>
        <time>2014-07-18T07:53:32.000Z</time>
      </trkpt>
      <trkpt lat="48.69778" lon="1.75445">
        <ele>165.39999389648</ele>
        <time>2014-07-18T07:53:40.000Z</time>
      </trkpt>
      <trkpt lat="48.69768" lon="1.7545">
        <ele>164.80000305176</ele>
        <time>2014-07-18T07:53:49.000Z</time>
      </trkpt>
      <trkpt lat="48.69768" lon="1.75451">
        <ele>164.60000610352</ele>
        <time>2014-07-18T07:53:52.000Z</time>
      </trkpt>
      <trkpt lat="48.69756" lon="1.75456">
        <ele>163.80000305176</ele>
        <time>2014-07-18T07:54:00.000Z</time>
      </trkpt>
      <trkpt lat="48.69748" lon="1.75461">
        <ele>163.19999694824</ele>
        <time>2014-07-18T07:54:07.000Z</time>
      </trkpt>
      <trkpt lat="48.69736" lon="1.75467">
        <ele>162.39999389648</ele>
        <time>2014-07-18T07:54:17.000Z</time>
      </trkpt>
      <trkpt lat="48.69729" lon="1.75471">
        <ele>161.80000305176</ele>
        <time>2014-07-18T07:54:23.000Z</time>
      </trkpt>
      <trkpt lat="48.69719" lon="1.75475">
        <ele>161.19999694824</ele>
        <time>2014-07-18T07:54:31.000Z</time>
      </trkpt>
      <trkpt lat="48.69711" lon="1.75479">
        <ele>160.60000610352</ele>
        <time>2014-07-18T07:54:39.000Z</time>
      </trkpt>
      <trkpt lat="48.69702" lon="1.75485">
        <ele>159.80000305176</ele>
        <time>2014-07-18T07:54:48.000Z</time>
      </trkpt>
      <trkpt lat="48.69696" lon="1.75487">
        <ele>159.39999389648</ele>
        <time>2014-07-18T07:54:54.000Z</time>
      </trkpt>
      <trkpt lat="48.69685" lon="1.75494">
        <ele>158.80000305176</ele>
        <time>2014-07-18T07:55:04.000Z</time>
      </trkpt>
      <trkpt lat="48.69677" lon="1.75497">
        <ele>158.39999389648</ele>
        <time>2014-07-18T07:55:12.000Z</time>
      </trkpt>
      <trkpt lat="48.69666" lon="1.75502">
        <ele>158</ele>
        <time>2014-07-18T07:55:21.000Z</time>
      </trkpt>
      <trkpt lat="48.69659" lon="1.75504">
        <ele>157.60000610352</ele>
        <time>2014-07-18T07:55:28.000Z</time>
      </trkpt>
      <trkpt lat="48.69651" lon="1.75509">
        <ele>157.19999694824</ele>
        <time>2014-07-18T07:55:35.000Z</time>
      </trkpt>
      <trkpt lat="48.69643" lon="1.75512">
        <ele>156.80000305176</ele>
        <time>2014-07-18T07:55:41.000Z</time>
      </trkpt>
      <trkpt lat="48.69636" lon="1.75515">
        <ele>156.60000610352</ele>
        <time>2014-07-18T07:55:47.000Z</time>
      </trkpt>
      <trkpt lat="48.69632" lon="1.75517">
        <ele>156.39999389648</ele>
        <time>2014-07-18T07:55:51.000Z</time>
      </trkpt>
      <trkpt lat="48.69624" lon="1.75521">
        <ele>156.19999694824</ele>
        <time>2014-07-18T07:55:58.000Z</time>
      </trkpt>
      <trkpt lat="48.69615" lon="1.75525">
        <ele>156.19999694824</ele>
        <time>2014-07-18T07:56:07.000Z</time>
      </trkpt>
      <trkpt lat="48.69603" lon="1.7553">
        <ele>156</ele>
        <time>2014-07-18T07:56:16.000Z</time>
      </trkpt>
      <trkpt lat="48.69597" lon="1.75534">
        <ele>155.80000305176</ele>
        <time>2014-07-18T07:56:22.000Z</time>
      </trkpt>
      <trkpt lat="48.69592" lon="1.75538">
        <ele>155.80000305176</ele>
        <time>2014-07-18T07:56:26.000Z</time>
      </trkpt>
      <trkpt lat="48.69588" lon="1.7554">
        <ele>155.60000610352</ele>
        <time>2014-07-18T07:56:30.000Z</time>
      </trkpt>
      <trkpt lat="48.69577" lon="1.75543">
        <ele>155.39999389648</ele>
        <time>2014-07-18T07:56:39.000Z</time>
      </trkpt>
      <trkpt lat="48.69568" lon="1.75544">
        <ele>155.39999389648</ele>
        <time>2014-07-18T07:56:46.000Z</time>
      </trkpt>
      <trkpt lat="48.69561" lon="1.75535">
        <ele>155.19999694824</ele>
        <time>2014-07-18T07:56:53.000Z</time>
      </trkpt>
      <trkpt lat="48.69557" lon="1.75518">
        <ele>154.80000305176</ele>
        <time>2014-07-18T07:56:58.000Z</time>
      </trkpt>
      <trkpt lat="48.69549" lon="1.75489">
        <ele>154.80000305176</ele>
        <time>2014-07-18T07:57:06.000Z</time>
      </trkpt>
      <trkpt lat="48.69543" lon="1.75462">
        <ele>154.60000610352</ele>
        <time>2014-07-18T07:57:13.000Z</time>
      </trkpt>
      <trkpt lat="48.69535" lon="1.75432">
        <ele>154.39999389648</ele>
        <time>2014-07-18T07:57:20.000Z</time>
      </trkpt>
      <trkpt lat="48.69528" lon="1.75409">
        <ele>154.19999694824</ele>
        <time>2014-07-18T07:57:26.000Z</time>
      </trkpt>
      <trkpt lat="48.6952" lon="1.75377">
        <ele>155</ele>
        <time>2014-07-18T07:57:33.000Z</time>
      </trkpt>
      <trkpt lat="48.69512" lon="1.75346">
        <ele>156</ele>
        <time>2014-07-18T07:57:40.000Z</time>
      </trkpt>
      <trkpt lat="48.69502" lon="1.75309">
        <ele>157.19999694824</ele>
        <time>2014-07-18T07:57:48.000Z</time>
      </trkpt>
      <trkpt lat="48.69492" lon="1.75278">
        <ele>158.80000305176</ele>
        <time>2014-07-18T07:57:55.000Z</time>
      </trkpt>
      <trkpt lat="48.69482" lon="1.75241">
        <ele>160.39999389648</ele>
        <time>2014-07-18T07:58:03.000Z</time>
      </trkpt>
      <trkpt lat="48.69475" lon="1.75209">
        <ele>162.19999694824</ele>
        <time>2014-07-18T07:58:10.000Z</time>
      </trkpt>
      <trkpt lat="48.69467" lon="1.75178">
        <ele>163.80000305176</ele>
        <time>2014-07-18T07:58:17.000Z</time>
      </trkpt>
      <trkpt lat="48.69461" lon="1.75154">
        <ele>164.80000305176</ele>
        <time>2014-07-18T07:58:22.000Z</time>
      </trkpt>
      <trkpt lat="48.69456" lon="1.75134">
        <ele>165.60000610352</ele>
        <time>2014-07-18T07:58:27.000Z</time>
      </trkpt>
      <trkpt lat="48.69451" lon="1.75107">
        <ele>166.60000610352</ele>
        <time>2014-07-18T07:58:33.000Z</time>
      </trkpt>
      <trkpt lat="48.69448" lon="1.75091">
        <ele>167.19999694824</ele>
        <time>2014-07-18T07:58:38.000Z</time>
      </trkpt>
      <trkpt lat="48.69444" lon="1.75076">
        <ele>167.60000610352</ele>
        <time>2014-07-18T07:58:44.000Z</time>
      </trkpt>
      <trkpt lat="48.69441" lon="1.75062">
        <ele>167.80000305176</ele>
        <time>2014-07-18T07:58:51.000Z</time>
      </trkpt>
      <trkpt lat="48.69434" lon="1.75047">
        <ele>168</ele>
        <time>2014-07-18T07:58:59.000Z</time>
      </trkpt>
      <trkpt lat="48.69432" lon="1.75037">
        <ele>167.80000305176</ele>
        <time>2014-07-18T07:59:05.000Z</time>
      </trkpt>
      <trkpt lat="48.69429" lon="1.75023">
        <ele>167.80000305176</ele>
        <time>2014-07-18T07:59:12.000Z</time>
      </trkpt>
      <trkpt lat="48.69426" lon="1.75007">
        <ele>167.60000610352</ele>
        <time>2014-07-18T07:59:20.000Z</time>
      </trkpt>
      <trkpt lat="48.69424" lon="1.74994">
        <ele>167.60000610352</ele>
        <time>2014-07-18T07:59:26.000Z</time>
      </trkpt>
      <trkpt lat="48.69421" lon="1.7498">
        <ele>167</ele>
        <time>2014-07-18T07:59:33.000Z</time>
      </trkpt>
      <trkpt lat="48.69417" lon="1.74966">
        <ele>166.19999694824</ele>
        <time>2014-07-18T07:59:40.000Z</time>
      </trkpt>
      <trkpt lat="48.69413" lon="1.74955">
        <ele>165.60000610352</ele>
        <time>2014-07-18T07:59:46.000Z</time>
      </trkpt>
      <trkpt lat="48.69409" lon="1.7494">
        <ele>165</ele>
        <time>2014-07-18T07:59:53.000Z</time>
      </trkpt>
      <trkpt lat="48.69407" lon="1.7493">
        <ele>164.39999389648</ele>
        <time>2014-07-18T07:59:59.000Z</time>
      </trkpt>
      <trkpt lat="48.69407" lon="1.7493">
        <ele>164.39999389648</ele>
        <time>2014-07-18T08:00:00.000Z</time>
      </trkpt>
      <trkpt lat="48.69403" lon="1.74916">
        <ele>163.80000305176</ele>
        <time>2014-07-18T08:00:21.000Z</time>
      </trkpt>
      <trkpt lat="48.69401" lon="1.74902">
        <ele>163.39999389648</ele>
        <time>2014-07-18T08:00:27.000Z</time>
      </trkpt>
      <trkpt lat="48.69399" lon="1.74896">
        <ele>163.19999694824</ele>
        <time>2014-07-18T08:00:31.000Z</time>
      </trkpt>
      <trkpt lat="48.69393" lon="1.74881">
        <ele>163.19999694824</ele>
        <time>2014-07-18T08:00:38.000Z</time>
      </trkpt>
      <trkpt lat="48.69389" lon="1.74866">
        <ele>163.19999694824</ele>
        <time>2014-07-18T08:00:45.000Z</time>
      </trkpt>
      <trkpt lat="48.69387" lon="1.74854">
        <ele>163.19999694824</ele>
        <time>2014-07-18T08:00:51.000Z</time>
      </trkpt>
      <trkpt lat="48.6938" lon="1.74835">
        <ele>162.60000610352</ele>
        <time>2014-07-18T08:00:59.000Z</time>
      </trkpt>
      <trkpt lat="48.69376" lon="1.74822">
        <ele>162</ele>
        <time>2014-07-18T08:01:06.000Z</time>
      </trkpt>
      <trkpt lat="48.69371" lon="1.74806">
        <ele>162.80000305176</ele>
        <time>2014-07-18T08:01:13.000Z</time>
      </trkpt>
      <trkpt lat="48.69369" lon="1.74799">
        <ele>163.39999389648</ele>
        <time>2014-07-18T08:01:17.000Z</time>
      </trkpt>
      <trkpt lat="48.69367" lon="1.74788">
        <ele>164</ele>
        <time>2014-07-18T08:01:23.000Z</time>
      </trkpt>
      <trkpt lat="48.69366" lon="1.7478">
        <ele>164.39999389648</ele>
        <time>2014-07-18T08:01:27.000Z</time>
      </trkpt>
      <trkpt lat="48.69361" lon="1.74764">
        <ele>165.39999389648</ele>
        <time>2014-07-18T08:01:35.000Z</time>
      </trkpt>
      <trkpt lat="48.69358" lon="1.74751">
        <ele>166.19999694824</ele>
        <time>2014-07-18T08:01:42.000Z</time>
      </trkpt>
      <trkpt lat="48.69355" lon="1.74736">
        <ele>167</ele>
        <time>2014-07-18T08:01:49.000Z</time>
      </trkpt>
      <trkpt lat="48.69353" lon="1.74724">
        <ele>167</ele>
        <time>2014-07-18T08:01:56.000Z</time>
      </trkpt>
      <trkpt lat="48.69347" lon="1.7471">
        <ele>167</ele>
        <time>2014-07-18T08:02:04.000Z</time>
      </trkpt>
      <trkpt lat="48.69346" lon="1.74702">
        <ele>167</ele>
        <time>2014-07-18T08:02:09.000Z</time>
      </trkpt>
      <trkpt lat="48.69344" lon="1.74688">
        <ele>167.19999694824</ele>
        <time>2014-07-18T08:02:17.000Z</time>
      </trkpt>
      <trkpt lat="48.69339" lon="1.74675">
        <ele>167.19999694824</ele>
        <time>2014-07-18T08:02:24.000Z</time>
      </trkpt>
      <trkpt lat="48.69336" lon="1.7466">
        <ele>167.19999694824</ele>
        <time>2014-07-18T08:02:32.000Z</time>
      </trkpt>
      <trkpt lat="48.6933" lon="1.74642">
        <ele>167.39999389648</ele>
        <time>2014-07-18T08:02:41.000Z</time>
      </trkpt>
      <trkpt lat="48.69327" lon="1.74632">
        <ele>167.60000610352</ele>
        <time>2014-07-18T08:02:46.000Z</time>
      </trkpt>
      <trkpt lat="48.69323" lon="1.74617">
        <ele>167.80000305176</ele>
        <time>2014-07-18T08:02:53.000Z</time>
      </trkpt>
      <trkpt lat="48.69317" lon="1.74599">
        <ele>168</ele>
        <time>2014-07-18T08:03:03.000Z</time>
      </trkpt>
      <trkpt lat="48.69313" lon="1.74585">
        <ele>168.39999389648</ele>
        <time>2014-07-18T08:03:10.000Z</time>
      </trkpt>
      <trkpt lat="48.69306" lon="1.74572">
        <ele>168.60000610352</ele>
        <time>2014-07-18T08:03:18.000Z</time>
      </trkpt>
      <trkpt lat="48.69295" lon="1.74562">
        <ele>168.80000305176</ele>
        <time>2014-07-18T08:03:27.000Z</time>
      </trkpt>
      <trkpt lat="48.69286" lon="1.74552">
        <ele>168.80000305176</ele>
        <time>2014-07-18T08:03:35.000Z</time>
      </trkpt>
      <trkpt lat="48.69273" lon="1.74539">
        <ele>169</ele>
        <time>2014-07-18T08:03:45.000Z</time>
      </trkpt>
      <trkpt lat="48.69261" lon="1.74528">
        <ele>168.60000610352</ele>
        <time>2014-07-18T08:03:54.000Z</time>
      </trkpt>
      <trkpt lat="48.69255" lon="1.74518">
        <ele>168.39999389648</ele>
        <time>2014-07-18T08:04:00.000Z</time>
      </trkpt>
      <trkpt lat="48.69246" lon="1.74508">
        <ele>168.19999694824</ele>
        <time>2014-07-18T08:04:09.000Z</time>
      </trkpt>
      <trkpt lat="48.69239" lon="1.745">
        <ele>167.80000305176</ele>
        <time>2014-07-18T08:04:15.000Z</time>
      </trkpt>
      <trkpt lat="48.69229" lon="1.7449">
        <ele>167.60000610352</ele>
        <time>2014-07-18T08:04:23.000Z</time>
      </trkpt>
      <trkpt lat="48.69221" lon="1.74483">
        <ele>167</ele>
        <time>2014-07-18T08:04:30.000Z</time>
      </trkpt>
      <trkpt lat="48.69211" lon="1.74474">
        <ele>166.39999389648</ele>
        <time>2014-07-18T08:04:38.000Z</time>
      </trkpt>
      <trkpt lat="48.69201" lon="1.74464">
        <ele>165.60000610352</ele>
        <time>2014-07-18T08:04:46.000Z</time>
      </trkpt>
      <trkpt lat="48.69194" lon="1.74455">
        <ele>165</ele>
        <time>2014-07-18T08:04:52.000Z</time>
      </trkpt>
      <trkpt lat="48.69184" lon="1.74444">
        <ele>164.39999389648</ele>
        <time>2014-07-18T08:05:00.000Z</time>
      </trkpt>
      <trkpt lat="48.69174" lon="1.74436">
        <ele>163.80000305176</ele>
        <time>2014-07-18T08:05:08.000Z</time>
      </trkpt>
      <trkpt lat="48.69167" lon="1.74426">
        <ele>163.39999389648</ele>
        <time>2014-07-18T08:05:15.000Z</time>
      </trkpt>
      <trkpt lat="48.69163" lon="1.74419">
        <ele>163</ele>
        <time>2014-07-18T08:05:19.000Z</time>
      </trkpt>
      <trkpt lat="48.69151" lon="1.74411">
        <ele>162.39999389648</ele>
        <time>2014-07-18T08:05:27.000Z</time>
      </trkpt>
      <trkpt lat="48.69142" lon="1.74404">
        <ele>162</ele>
        <time>2014-07-18T08:05:34.000Z</time>
      </trkpt>
      <trkpt lat="48.69135" lon="1.74397">
        <ele>161.80000305176</ele>
        <time>2014-07-18T08:05:40.000Z</time>
      </trkpt>
      <trkpt lat="48.69127" lon="1.7439">
        <ele>161.60000610352</ele>
        <time>2014-07-18T08:05:47.000Z</time>
      </trkpt>
      <trkpt lat="48.69117" lon="1.7438">
        <ele>161.39999389648</ele>
        <time>2014-07-18T08:05:56.000Z</time>
      </trkpt>
      <trkpt lat="48.69108" lon="1.74369">
        <ele>161.19999694824</ele>
        <time>2014-07-18T08:06:04.000Z</time>
      </trkpt>
      <trkpt lat="48.69098" lon="1.74358">
        <ele>161</ele>
        <time>2014-07-18T08:06:13.000Z</time>
      </trkpt>
      <trkpt lat="48.6909" lon="1.74349">
        <ele>161</ele>
        <time>2014-07-18T08:06:20.000Z</time>
      </trkpt>
      <trkpt lat="48.69082" lon="1.7434">
        <ele>161</ele>
        <time>2014-07-18T08:06:27.000Z</time>
      </trkpt>
      <trkpt lat="48.69076" lon="1.74332">
        <ele>161</ele>
        <time>2014-07-18T08:06:33.000Z</time>
      </trkpt>
      <trkpt lat="48.69066" lon="1.74323">
        <ele>161</ele>
        <time>2014-07-18T08:06:41.000Z</time>
      </trkpt>
      <trkpt lat="48.69063" lon="1.7432">
        <ele>161</ele>
        <time>2014-07-18T08:06:43.000Z</time>
      </trkpt>
      <trkpt lat="48.69055" lon="1.74314">
        <ele>161.39999389648</ele>
        <time>2014-07-18T08:06:50.000Z</time>
      </trkpt>
      <trkpt lat="48.6905" lon="1.74309">
        <ele>161.60000610352</ele>
        <time>2014-07-18T08:06:55.000Z</time>
      </trkpt>
      <trkpt lat="48.69042" lon="1.74301">
        <ele>162</ele>
        <time>2014-07-18T08:07:02.000Z</time>
      </trkpt>
      <trkpt lat="48.69034" lon="1.74295">
        <ele>162.19999694824</ele>
        <time>2014-07-18T08:07:09.000Z</time>
      </trkpt>
      <trkpt lat="48.69026" lon="1.74287">
        <ele>162.60000610352</ele>
        <time>2014-07-18T08:07:16.000Z</time>
      </trkpt>
      <trkpt lat="48.69018" lon="1.74278">
        <ele>162.80000305176</ele>
        <time>2014-07-18T08:07:24.000Z</time>
      </trkpt>
      <trkpt lat="48.69014" lon="1.74273">
        <ele>162.80000305176</ele>
        <time>2014-07-18T08:07:28.000Z</time>
      </trkpt>
      <trkpt lat="48.69008" lon="1.74266">
        <ele>162.60000610352</ele>
        <time>2014-07-18T08:07:33.000Z</time>
      </trkpt>
      <trkpt lat="48.69004" lon="1.74262">
        <ele>162.39999389648</ele>
        <time>2014-07-18T08:07:37.000Z</time>
      </trkpt>
      <trkpt lat="48.68994" lon="1.74253">
        <ele>162.19999694824</ele>
        <time>2014-07-18T08:07:46.000Z</time>
      </trkpt>
      <trkpt lat="48.68981" lon="1.74237">
        <ele>161.80000305176</ele>
        <time>2014-07-18T08:07:57.000Z</time>
      </trkpt>
      <trkpt lat="48.6897" lon="1.74228">
        <ele>161.19999694824</ele>
        <time>2014-07-18T08:08:07.000Z</time>
      </trkpt>
      <trkpt lat="48.68961" lon="1.74219">
        <ele>161</ele>
        <time>2014-07-18T08:08:16.000Z</time>
      </trkpt>
      <trkpt lat="48.68957" lon="1.74215">
        <ele>160.80000305176</ele>
        <time>2014-07-18T08:08:20.000Z</time>
      </trkpt>
      <trkpt lat="48.68948" lon="1.74209">
        <ele>160.39999389648</ele>
        <time>2014-07-18T08:08:28.000Z</time>
      </trkpt>
      <trkpt lat="48.68943" lon="1.74202">
        <ele>160.19999694824</ele>
        <time>2014-07-18T08:08:33.000Z</time>
      </trkpt>
      <trkpt lat="48.68941" lon="1.742">
        <ele>160.19999694824</ele>
        <time>2014-07-18T08:08:35.000Z</time>
      </trkpt>
      <trkpt lat="48.68939" lon="1.74196">
        <ele>160.19999694824</ele>
        <time>2014-07-18T08:08:37.000Z</time>
      </trkpt>
      <trkpt lat="48.68928" lon="1.74186">
        <ele>160</ele>
        <time>2014-07-18T08:08:46.000Z</time>
      </trkpt>
      <trkpt lat="48.68918" lon="1.74176">
        <ele>159.80000305176</ele>
        <time>2014-07-18T08:08:54.000Z</time>
      </trkpt>
      <trkpt lat="48.68907" lon="1.74165">
        <ele>159.60000610352</ele>
        <time>2014-07-18T08:09:04.000Z</time>
      </trkpt>
      <trkpt lat="48.689" lon="1.74157">
        <ele>159.60000610352</ele>
        <time>2014-07-18T08:09:10.000Z</time>
      </trkpt>
      <trkpt lat="48.68891" lon="1.74151">
        <ele>159.39999389648</ele>
        <time>2014-07-18T08:09:18.000Z</time>
      </trkpt>
      <trkpt lat="48.6889" lon="1.74149">
        <ele>159.39999389648</ele>
        <time>2014-07-18T08:09:19.000Z</time>
      </trkpt>
      <trkpt lat="48.68884" lon="1.74142">
        <ele>159.19999694824</ele>
        <time>2014-07-18T08:09:26.000Z</time>
      </trkpt>
      <trkpt lat="48.6888" lon="1.74139">
        <ele>159</ele>
        <time>2014-07-18T08:09:29.000Z</time>
      </trkpt>
      <trkpt lat="48.68867" lon="1.74126">
        <ele>158.60000610352</ele>
        <time>2014-07-18T08:09:39.000Z</time>
      </trkpt>
      <trkpt lat="48.68859" lon="1.74119">
        <ele>158.19999694824</ele>
        <time>2014-07-18T08:09:46.000Z</time>
      </trkpt>
      <trkpt lat="48.68856" lon="1.74119">
        <ele>158</ele>
        <time>2014-07-18T08:09:50.000Z</time>
      </trkpt>
      <trkpt lat="48.68851" lon="1.74116">
        <ele>157.80000305176</ele>
        <time>2014-07-18T08:09:56.000Z</time>
      </trkpt>
      <trkpt lat="48.68851" lon="1.74116">
        <ele>157.80000305176</ele>
        <time>2014-07-18T08:09:57.000Z</time>
      </trkpt>
      <trkpt lat="48.6885" lon="1.74119">
        <ele>157.80000305176</ele>
        <time>2014-07-18T08:10:21.000Z</time>
      </trkpt>
      <trkpt lat="48.68848" lon="1.74119">
        <ele>157.80000305176</ele>
        <time>2014-07-18T08:10:25.000Z</time>
      </trkpt>
      <trkpt lat="48.68846" lon="1.74116">
        <ele>157.80000305176</ele>
        <time>2014-07-18T08:14:05.000Z</time>
      </trkpt>
      <trkpt lat="48.68844" lon="1.74116">
        <ele>157.80000305176</ele>
        <time>2014-07-18T08:14:07.000Z</time>
      </trkpt>
      <trkpt lat="48.68843" lon="1.74114">
        <ele>157.80000305176</ele>
        <time>2014-07-18T08:14:10.000Z</time>
      </trkpt>
      <trkpt lat="48.68846" lon="1.74113">
        <ele>157.80000305176</ele>
        <time>2014-07-18T08:14:14.000Z</time>
      </trkpt>
      <trkpt lat="48.68837" lon="1.74111">
        <ele>157.80000305176</ele>
        <time>2014-07-18T08:14:37.000Z</time>
      </trkpt>
      <trkpt lat="48.68834" lon="1.74108">
        <ele>157.80000305176</ele>
        <time>2014-07-18T08:14:40.000Z</time>
      </trkpt>
      <trkpt lat="48.68831" lon="1.74101">
        <ele>158</ele>
        <time>2014-07-18T08:14:45.000Z</time>
      </trkpt>
      <trkpt lat="48.68827" lon="1.74096">
        <ele>158</ele>
        <time>2014-07-18T08:14:50.000Z</time>
      </trkpt>
      <trkpt lat="48.68826" lon="1.74095">
        <ele>158</ele>
        <time>2014-07-18T08:14:59.000Z</time>
      </trkpt>
      <trkpt lat="48.68826" lon="1.74094">
        <ele>158.19999694824</ele>
        <time>2014-07-18T08:15:00.000Z</time>
      </trkpt>
      <trkpt lat="48.68816" lon="1.74078">
        <ele>158.39999389648</ele>
        <time>2014-07-18T08:16:05.000Z</time>
      </trkpt>
      <trkpt lat="48.68806" lon="1.74068">
        <ele>158.60000610352</ele>
        <time>2014-07-18T08:16:11.000Z</time>
      </trkpt>
      <trkpt lat="48.68799" lon="1.7406">
        <ele>159.19999694824</ele>
        <time>2014-07-18T08:16:19.000Z</time>
      </trkpt>
      <trkpt lat="48.68792" lon="1.74055">
        <ele>159.39999389648</ele>
        <time>2014-07-18T08:16:26.000Z</time>
      </trkpt>
      <trkpt lat="48.68788" lon="1.74059">
        <ele>159</ele>
        <time>2014-07-18T08:16:31.000Z</time>
      </trkpt>
      <trkpt lat="48.6878" lon="1.74073">
        <ele>158</ele>
        <time>2014-07-18T08:16:40.000Z</time>
      </trkpt>
      <trkpt lat="48.6877" lon="1.74088">
        <ele>157.19999694824</ele>
        <time>2014-07-18T08:16:50.000Z</time>
      </trkpt>
      <trkpt lat="48.68767" lon="1.74092">
        <ele>157.19999694824</ele>
        <time>2014-07-18T08:16:54.000Z</time>
      </trkpt>
      <trkpt lat="48.68764" lon="1.74099">
        <ele>157</ele>
        <time>2014-07-18T08:16:58.000Z</time>
      </trkpt>
      <trkpt lat="48.68757" lon="1.74109">
        <ele>157</ele>
        <time>2014-07-18T08:17:06.000Z</time>
      </trkpt>
      <trkpt lat="48.68753" lon="1.74115">
        <ele>156.80000305176</ele>
        <time>2014-07-18T08:17:12.000Z</time>
      </trkpt>
      <trkpt lat="48.68753" lon="1.74117">
        <ele>156.80000305176</ele>
        <time>2014-07-18T08:17:13.000Z</time>
      </trkpt>
      <trkpt lat="48.68748" lon="1.74123">
        <ele>156.80000305176</ele>
        <time>2014-07-18T08:17:18.000Z</time>
      </trkpt>
      <trkpt lat="48.6874" lon="1.74135">
        <ele>156.60000610352</ele>
        <time>2014-07-18T08:17:25.000Z</time>
      </trkpt>
      <trkpt lat="48.68734" lon="1.74142">
        <ele>156.39999389648</ele>
        <time>2014-07-18T08:17:31.000Z</time>
      </trkpt>
      <trkpt lat="48.68728" lon="1.74152">
        <ele>156.19999694824</ele>
        <time>2014-07-18T08:17:38.000Z</time>
      </trkpt>
      <trkpt lat="48.68722" lon="1.7416">
        <ele>156.39999389648</ele>
        <time>2014-07-18T08:17:45.000Z</time>
      </trkpt>
      <trkpt lat="48.68718" lon="1.74168">
        <ele>157</ele>
        <time>2014-07-18T08:17:52.000Z</time>
      </trkpt>
      <trkpt lat="48.68709" lon="1.74186">
        <ele>157.60000610352</ele>
        <time>2014-07-18T08:18:00.000Z</time>
      </trkpt>
      <trkpt lat="48.68706" lon="1.74195">
        <ele>157.60000610352</ele>
        <time>2014-07-18T08:18:05.000Z</time>
      </trkpt>
      <trkpt lat="48.68706" lon="1.74209">
        <ele>157.39999389648</ele>
        <time>2014-07-18T08:18:12.000Z</time>
      </trkpt>
      <trkpt lat="48.68703" lon="1.74224">
        <ele>157.19999694824</ele>
        <time>2014-07-18T08:18:19.000Z</time>
      </trkpt>
      <trkpt lat="48.68697" lon="1.74234">
        <ele>157</ele>
        <time>2014-07-18T08:18:26.000Z</time>
      </trkpt>
      <trkpt lat="48.68689" lon="1.74237">
        <ele>157</ele>
        <time>2014-07-18T08:18:32.000Z</time>
      </trkpt>
      <trkpt lat="48.68679" lon="1.74239">
        <ele>157.19999694824</ele>
        <time>2014-07-18T08:18:40.000Z</time>
      </trkpt>
      <trkpt lat="48.68667" lon="1.74243">
        <ele>157.39999389648</ele>
        <time>2014-07-18T08:18:48.000Z</time>
      </trkpt>
      <trkpt lat="48.68662" lon="1.74245">
        <ele>157.39999389648</ele>
        <time>2014-07-18T08:18:52.000Z</time>
      </trkpt>
      <trkpt lat="48.68651" lon="1.74249">
        <ele>157.80000305176</ele>
        <time>2014-07-18T08:18:59.000Z</time>
      </trkpt>
      <trkpt lat="48.6864" lon="1.74253">
        <ele>158</ele>
        <time>2014-07-18T08:19:06.000Z</time>
      </trkpt>
      <trkpt lat="48.68636" lon="1.74256">
        <ele>158</ele>
        <time>2014-07-18T08:19:09.000Z</time>
      </trkpt>
      <trkpt lat="48.6863" lon="1.74259">
        <ele>158.19999694824</ele>
        <time>2014-07-18T08:19:13.000Z</time>
      </trkpt>
      <trkpt lat="48.68617" lon="1.74268">
        <ele>157.60000610352</ele>
        <time>2014-07-18T08:19:22.000Z</time>
      </trkpt>
      <trkpt lat="48.68606" lon="1.74273">
        <ele>156.80000305176</ele>
        <time>2014-07-18T08:19:30.000Z</time>
      </trkpt>
      <trkpt lat="48.68597" lon="1.7428">
        <ele>156.39999389648</ele>
        <time>2014-07-18T08:19:37.000Z</time>
      </trkpt>
      <trkpt lat="48.68588" lon="1.7429">
        <ele>155.80000305176</ele>
        <time>2014-07-18T08:19:45.000Z</time>
      </trkpt>
      <trkpt lat="48.68584" lon="1.743">
        <ele>155.19999694824</ele>
        <time>2014-07-18T08:19:52.000Z</time>
      </trkpt>
      <trkpt lat="48.68583" lon="1.74305">
        <ele>155.19999694824</ele>
        <time>2014-07-18T08:19:55.000Z</time>
      </trkpt>
      <trkpt lat="48.68581" lon="1.74315">
        <ele>154.80000305176</ele>
        <time>2014-07-18T08:20:00.000Z</time>
      </trkpt>
      <trkpt lat="48.6858" lon="1.74321">
        <ele>154.80000305176</ele>
        <time>2014-07-18T08:20:04.000Z</time>
      </trkpt>
      <trkpt lat="48.68579" lon="1.74325">
        <ele>154.80000305176</ele>
        <time>2014-07-18T08:20:06.000Z</time>
      </trkpt>
      <trkpt lat="48.68579" lon="1.74346">
        <ele>155</ele>
        <time>2014-07-18T08:20:14.000Z</time>
      </trkpt>
      <trkpt lat="48.68578" lon="1.7436">
        <ele>155.19999694824</ele>
        <time>2014-07-18T08:20:20.000Z</time>
      </trkpt>
      <trkpt lat="48.68576" lon="1.74379">
        <ele>155.19999694824</ele>
        <time>2014-07-18T08:20:26.000Z</time>
      </trkpt>
      <trkpt lat="48.68575" lon="1.74392">
        <ele>154.39999389648</ele>
        <time>2014-07-18T08:20:33.000Z</time>
      </trkpt>
      <trkpt lat="48.68572" lon="1.74399">
        <ele>153.80000305176</ele>
        <time>2014-07-18T08:20:37.000Z</time>
      </trkpt>
      <trkpt lat="48.68571" lon="1.74405">
        <ele>153.39999389648</ele>
        <time>2014-07-18T08:20:41.000Z</time>
      </trkpt>
      <trkpt lat="48.68565" lon="1.7442">
        <ele>153.80000305176</ele>
        <time>2014-07-18T08:20:49.000Z</time>
      </trkpt>
      <trkpt lat="48.68559" lon="1.74428">
        <ele>154</ele>
        <time>2014-07-18T08:20:55.000Z</time>
      </trkpt>
      <trkpt lat="48.68556" lon="1.74433">
        <ele>154.19999694824</ele>
        <time>2014-07-18T08:21:00.000Z</time>
      </trkpt>
      <trkpt lat="48.68549" lon="1.74439">
        <ele>154</ele>
        <time>2014-07-18T08:21:06.000Z</time>
      </trkpt>
      <trkpt lat="48.68541" lon="1.74445">
        <ele>153.80000305176</ele>
        <time>2014-07-18T08:21:12.000Z</time>
      </trkpt>
      <trkpt lat="48.68533" lon="1.74453">
        <ele>153.60000610352</ele>
        <time>2014-07-18T08:21:19.000Z</time>
      </trkpt>
      <trkpt lat="48.68525" lon="1.74458">
        <ele>153.39999389648</ele>
        <time>2014-07-18T08:21:25.000Z</time>
      </trkpt>
      <trkpt lat="48.68521" lon="1.7446">
        <ele>153.19999694824</ele>
        <time>2014-07-18T08:21:29.000Z</time>
      </trkpt>
      <trkpt lat="48.68514" lon="1.74464">
        <ele>153.60000610352</ele>
        <time>2014-07-18T08:21:34.000Z</time>
      </trkpt>
      <trkpt lat="48.68508" lon="1.74467">
        <ele>154.19999694824</ele>
        <time>2014-07-18T08:21:39.000Z</time>
      </trkpt>
      <trkpt lat="48.68505" lon="1.74468">
        <ele>154.39999389648</ele>
        <time>2014-07-18T08:21:41.000Z</time>
      </trkpt>
      <trkpt lat="48.68493" lon="1.74475">
        <ele>154</ele>
        <time>2014-07-18T08:21:50.000Z</time>
      </trkpt>
      <trkpt lat="48.68481" lon="1.74482">
        <ele>153.19999694824</ele>
        <time>2014-07-18T08:22:00.000Z</time>
      </trkpt>
      <trkpt lat="48.68472" lon="1.74488">
        <ele>152.80000305176</ele>
        <time>2014-07-18T08:22:08.000Z</time>
      </trkpt>
      <trkpt lat="48.68464" lon="1.74494">
        <ele>153</ele>
        <time>2014-07-18T08:22:15.000Z</time>
      </trkpt>
      <trkpt lat="48.68456" lon="1.745">
        <ele>153.19999694824</ele>
        <time>2014-07-18T08:22:21.000Z</time>
      </trkpt>
      <trkpt lat="48.68446" lon="1.74506">
        <ele>152.60000610352</ele>
        <time>2014-07-18T08:22:29.000Z</time>
      </trkpt>
      <trkpt lat="48.68436" lon="1.74513">
        <ele>152</ele>
        <time>2014-07-18T08:22:37.000Z</time>
      </trkpt>
      <trkpt lat="48.68428" lon="1.7452">
        <ele>153</ele>
        <time>2014-07-18T08:22:45.000Z</time>
      </trkpt>
      <trkpt lat="48.68419" lon="1.74525">
        <ele>153.80000305176</ele>
        <time>2014-07-18T08:22:52.000Z</time>
      </trkpt>
      <trkpt lat="48.68411" lon="1.74531">
        <ele>154.60000610352</ele>
        <time>2014-07-18T08:22:59.000Z</time>
      </trkpt>
      <trkpt lat="48.68405" lon="1.74537">
        <ele>155.39999389648</ele>
        <time>2014-07-18T08:23:05.000Z</time>
      </trkpt>
      <trkpt lat="48.68396" lon="1.74549">
        <ele>155</ele>
        <time>2014-07-18T08:23:14.000Z</time>
      </trkpt>
      <trkpt lat="48.68392" lon="1.74556">
        <ele>154.80000305176</ele>
        <time>2014-07-18T08:23:20.000Z</time>
      </trkpt>
      <trkpt lat="48.68388" lon="1.74564">
        <ele>154.39999389648</ele>
        <time>2014-07-18T08:23:24.000Z</time>
      </trkpt>
      <trkpt lat="48.6838" lon="1.74578">
        <ele>154.39999389648</ele>
        <time>2014-07-18T08:23:32.000Z</time>
      </trkpt>
      <trkpt lat="48.68371" lon="1.74593">
        <ele>155</ele>
        <time>2014-07-18T08:23:41.000Z</time>
      </trkpt>
      <trkpt lat="48.68365" lon="1.74606">
        <ele>154.39999389648</ele>
        <time>2014-07-18T08:23:48.000Z</time>
      </trkpt>
      <trkpt lat="48.68361" lon="1.74621">
        <ele>154</ele>
        <time>2014-07-18T08:23:55.000Z</time>
      </trkpt>
      <trkpt lat="48.68356" lon="1.74633">
        <ele>153.39999389648</ele>
        <time>2014-07-18T08:24:02.000Z</time>
      </trkpt>
      <trkpt lat="48.68351" lon="1.74648">
        <ele>153.39999389648</ele>
        <time>2014-07-18T08:24:10.000Z</time>
      </trkpt>
      <trkpt lat="48.68344" lon="1.74662">
        <ele>154</ele>
        <time>2014-07-18T08:24:17.000Z</time>
      </trkpt>
      <trkpt lat="48.68343" lon="1.74666">
        <ele>154.19999694824</ele>
        <time>2014-07-18T08:24:19.000Z</time>
      </trkpt>
      <trkpt lat="48.68335" lon="1.74682">
        <ele>155.19999694824</ele>
        <time>2014-07-18T08:24:27.000Z</time>
      </trkpt>
      <trkpt lat="48.6833" lon="1.74692">
        <ele>156</ele>
        <time>2014-07-18T08:24:33.000Z</time>
      </trkpt>
      <trkpt lat="48.6832" lon="1.74711">
        <ele>156.80000305176</ele>
        <time>2014-07-18T08:24:43.000Z</time>
      </trkpt>
      <trkpt lat="48.68317" lon="1.74717">
        <ele>156.39999389648</ele>
        <time>2014-07-18T08:24:48.000Z</time>
      </trkpt>
      <trkpt lat="48.6831" lon="1.74729">
        <ele>155.39999389648</ele>
        <time>2014-07-18T08:24:55.000Z</time>
      </trkpt>
      <trkpt lat="48.68301" lon="1.74744">
        <ele>155</ele>
        <time>2014-07-18T08:25:04.000Z</time>
      </trkpt>
      <trkpt lat="48.68294" lon="1.74758">
        <ele>155.60000610352</ele>
        <time>2014-07-18T08:25:13.000Z</time>
      </trkpt>
      <trkpt lat="48.68288" lon="1.74768">
        <ele>155</ele>
        <time>2014-07-18T08:25:19.000Z</time>
      </trkpt>
      <trkpt lat="48.68281" lon="1.7478">
        <ele>154</ele>
        <time>2014-07-18T08:25:26.000Z</time>
      </trkpt>
      <trkpt lat="48.68276" lon="1.74792">
        <ele>153.39999389648</ele>
        <time>2014-07-18T08:25:32.000Z</time>
      </trkpt>
      <trkpt lat="48.6827" lon="1.74807">
        <ele>152.39999389648</ele>
        <time>2014-07-18T08:25:39.000Z</time>
      </trkpt>
      <trkpt lat="48.68265" lon="1.74819">
        <ele>152.39999389648</ele>
        <time>2014-07-18T08:25:46.000Z</time>
      </trkpt>
      <trkpt lat="48.6826" lon="1.74827">
        <ele>152.60000610352</ele>
        <time>2014-07-18T08:25:51.000Z</time>
      </trkpt>
      <trkpt lat="48.68255" lon="1.74841">
        <ele>152.80000305176</ele>
        <time>2014-07-18T08:25:57.000Z</time>
      </trkpt>
      <trkpt lat="48.68249" lon="1.74854">
        <ele>153.19999694824</ele>
        <time>2014-07-18T08:26:05.000Z</time>
      </trkpt>
      <trkpt lat="48.68245" lon="1.74865">
        <ele>153.60000610352</ele>
        <time>2014-07-18T08:26:12.000Z</time>
      </trkpt>
      <trkpt lat="48.68242" lon="1.74876">
        <ele>153.60000610352</ele>
        <time>2014-07-18T08:26:17.000Z</time>
      </trkpt>
      <trkpt lat="48.6824" lon="1.74881">
        <ele>153.19999694824</ele>
        <time>2014-07-18T08:26:20.000Z</time>
      </trkpt>
      <trkpt lat="48.68236" lon="1.74893">
        <ele>152.39999389648</ele>
        <time>2014-07-18T08:26:25.000Z</time>
      </trkpt>
      <trkpt lat="48.68232" lon="1.74905">
        <ele>151.60000610352</ele>
        <time>2014-07-18T08:26:31.000Z</time>
      </trkpt>
      <trkpt lat="48.68228" lon="1.74919">
        <ele>152.39999389648</ele>
        <time>2014-07-18T08:26:36.000Z</time>
      </trkpt>
      <trkpt lat="48.68222" lon="1.74932">
        <ele>153.19999694824</ele>
        <time>2014-07-18T08:26:43.000Z</time>
      </trkpt>
      <trkpt lat="48.68219" lon="1.74946">
        <ele>153.19999694824</ele>
        <time>2014-07-18T08:26:49.000Z</time>
      </trkpt>
      <trkpt lat="48.68216" lon="1.7496">
        <ele>152.80000305176</ele>
        <time>2014-07-18T08:26:56.000Z</time>
      </trkpt>
      <trkpt lat="48.68216" lon="1.74964">
        <ele>152.80000305176</ele>
        <time>2014-07-18T08:26:58.000Z</time>
      </trkpt>
      <trkpt lat="48.68214" lon="1.74975">
        <ele>152.39999389648</ele>
        <time>2014-07-18T08:27:04.000Z</time>
      </trkpt>
      <trkpt lat="48.68211" lon="1.74986">
        <ele>152.19999694824</ele>
        <time>2014-07-18T08:27:10.000Z</time>
      </trkpt>
      <trkpt lat="48.68209" lon="1.75003">
        <ele>152.80000305176</ele>
        <time>2014-07-18T08:27:16.000Z</time>
      </trkpt>
      <trkpt lat="48.68207" lon="1.75009">
        <ele>153</ele>
        <time>2014-07-18T08:27:19.000Z</time>
      </trkpt>
      <trkpt lat="48.68203" lon="1.75023">
        <ele>152.60000610352</ele>
        <time>2014-07-18T08:27:24.000Z</time>
      </trkpt>
      <trkpt lat="48.68196" lon="1.75036">
        <ele>152</ele>
        <time>2014-07-18T08:27:32.000Z</time>
      </trkpt>
      <trkpt lat="48.68192" lon="1.75048">
        <ele>151.39999389648</ele>
        <time>2014-07-18T08:27:39.000Z</time>
      </trkpt>
      <trkpt lat="48.68186" lon="1.75063">
        <ele>151</ele>
        <time>2014-07-18T08:27:45.000Z</time>
      </trkpt>
      <trkpt lat="48.68182" lon="1.75068">
        <ele>150.80000305176</ele>
        <time>2014-07-18T08:27:49.000Z</time>
      </trkpt>
      <trkpt lat="48.68177" lon="1.7508">
        <ele>151</ele>
        <time>2014-07-18T08:27:56.000Z</time>
      </trkpt>
      <trkpt lat="48.68171" lon="1.75093">
        <ele>151.39999389648</ele>
        <time>2014-07-18T08:28:03.000Z</time>
      </trkpt>
      <trkpt lat="48.68164" lon="1.75105">
        <ele>151.60000610352</ele>
        <time>2014-07-18T08:28:10.000Z</time>
      </trkpt>
      <trkpt lat="48.68157" lon="1.75117">
        <ele>152</ele>
        <time>2014-07-18T08:28:18.000Z</time>
      </trkpt>
      <trkpt lat="48.68154" lon="1.75124">
        <ele>152.19999694824</ele>
        <time>2014-07-18T08:28:23.000Z</time>
      </trkpt>
      <trkpt lat="48.68149" lon="1.75131">
        <ele>151.80000305176</ele>
        <time>2014-07-18T08:28:27.000Z</time>
      </trkpt>
      <trkpt lat="48.68142" lon="1.75143">
        <ele>151.39999389648</ele>
        <time>2014-07-18T08:28:34.000Z</time>
      </trkpt>
      <trkpt lat="48.6813" lon="1.7516">
        <ele>150.60000610352</ele>
        <time>2014-07-18T08:28:43.000Z</time>
      </trkpt>
      <trkpt lat="48.68122" lon="1.75173">
        <ele>149.80000305176</ele>
        <time>2014-07-18T08:28:52.000Z</time>
      </trkpt>
      <trkpt lat="48.68113" lon="1.75186">
        <ele>149.80000305176</ele>
        <time>2014-07-18T08:29:00.000Z</time>
      </trkpt>
      <trkpt lat="48.68103" lon="1.75202">
        <ele>149.80000305176</ele>
        <time>2014-07-18T08:29:09.000Z</time>
      </trkpt>
      <trkpt lat="48.68094" lon="1.75219">
        <ele>150.19999694824</ele>
        <time>2014-07-18T08:29:19.000Z</time>
      </trkpt>
      <trkpt lat="48.68088" lon="1.7523">
        <ele>150.19999694824</ele>
        <time>2014-07-18T08:29:26.000Z</time>
      </trkpt>
      <trkpt lat="48.68083" lon="1.75246">
        <ele>150</ele>
        <time>2014-07-18T08:29:33.000Z</time>
      </trkpt>
      <trkpt lat="48.6808" lon="1.75259">
        <ele>149.80000305176</ele>
        <time>2014-07-18T08:29:41.000Z</time>
      </trkpt>
      <trkpt lat="48.68077" lon="1.75273">
        <ele>149.80000305176</ele>
        <time>2014-07-18T08:29:47.000Z</time>
      </trkpt>
      <trkpt lat="48.68073" lon="1.75298">
        <ele>149.60000610352</ele>
        <time>2014-07-18T08:29:54.000Z</time>
      </trkpt>
      <trkpt lat="48.68071" lon="1.75317">
        <ele>149.80000305176</ele>
        <time>2014-07-18T08:30:01.000Z</time>
      </trkpt>
      <trkpt lat="48.68068" lon="1.75339">
        <ele>149.60000610352</ele>
        <time>2014-07-18T08:30:11.000Z</time>
      </trkpt>
      <trkpt lat="48.68067" lon="1.75352">
        <ele>149.39999389648</ele>
        <time>2014-07-18T08:30:18.000Z</time>
      </trkpt>
      <trkpt lat="48.68067" lon="1.75371">
        <ele>149.19999694824</ele>
        <time>2014-07-18T08:30:27.000Z</time>
      </trkpt>
      <trkpt lat="48.68063" lon="1.75396">
        <ele>149</ele>
        <time>2014-07-18T08:30:39.000Z</time>
      </trkpt>
      <trkpt lat="48.6806" lon="1.75418">
        <ele>149</ele>
        <time>2014-07-18T08:30:49.000Z</time>
      </trkpt>
      <trkpt lat="48.68057" lon="1.75432">
        <ele>149</ele>
        <time>2014-07-18T08:30:56.000Z</time>
      </trkpt>
      <trkpt lat="48.68054" lon="1.75452">
        <ele>148.39999389648</ele>
        <time>2014-07-18T08:31:06.000Z</time>
      </trkpt>
      <trkpt lat="48.6805" lon="1.75472">
        <ele>147.80000305176</ele>
        <time>2014-07-18T08:31:15.000Z</time>
      </trkpt>
      <trkpt lat="48.68047" lon="1.75488">
        <ele>147.39999389648</ele>
        <time>2014-07-18T08:31:22.000Z</time>
      </trkpt>
      <trkpt lat="48.68046" lon="1.75502">
        <ele>147.19999694824</ele>
        <time>2014-07-18T08:31:29.000Z</time>
      </trkpt>
      <trkpt lat="48.68048" lon="1.75514">
        <ele>147.39999389648</ele>
        <time>2014-07-18T08:31:36.000Z</time>
      </trkpt>
      <trkpt lat="48.68054" lon="1.75519">
        <ele>147.60000610352</ele>
        <time>2014-07-18T08:31:42.000Z</time>
      </trkpt>
      <trkpt lat="48.68065" lon="1.75528">
        <ele>148.19999694824</ele>
        <time>2014-07-18T08:31:50.000Z</time>
      </trkpt>
      <trkpt lat="48.68067" lon="1.75529">
        <ele>148.19999694824</ele>
        <time>2014-07-18T08:31:52.000Z</time>
      </trkpt>
      <trkpt lat="48.68072" lon="1.75533">
        <ele>148.60000610352</ele>
        <time>2014-07-18T08:31:58.000Z</time>
      </trkpt>
      <trkpt lat="48.68078" lon="1.75538">
        <ele>148.80000305176</ele>
        <time>2014-07-18T08:32:03.000Z</time>
      </trkpt>
      <trkpt lat="48.68079" lon="1.75539">
        <ele>148.80000305176</ele>
        <time>2014-07-18T08:32:05.000Z</time>
      </trkpt>
      <trkpt lat="48.6808" lon="1.75539">
        <ele>148.80000305176</ele>
        <time>2014-07-18T08:32:08.000Z</time>
      </trkpt>
      <trkpt lat="48.68086" lon="1.75538">
        <ele>149.19999694824</ele>
        <time>2014-07-18T08:32:19.000Z</time>
      </trkpt>
      <trkpt lat="48.68093" lon="1.75548">
        <ele>149.60000610352</ele>
        <time>2014-07-18T08:32:24.000Z</time>
      </trkpt>
      <trkpt lat="48.68099" lon="1.75555">
        <ele>149.80000305176</ele>
        <time>2014-07-18T08:32:30.000Z</time>
      </trkpt>
      <trkpt lat="48.6811" lon="1.75565">
        <ele>150.19999694824</ele>
        <time>2014-07-18T08:32:39.000Z</time>
      </trkpt>
      <trkpt lat="48.68121" lon="1.75575">
        <ele>150.39999389648</ele>
        <time>2014-07-18T08:32:48.000Z</time>
      </trkpt>
      <trkpt lat="48.68131" lon="1.75581">
        <ele>150.60000610352</ele>
        <time>2014-07-18T08:32:55.000Z</time>
      </trkpt>
      <trkpt lat="48.68143" lon="1.75588">
        <ele>151</ele>
        <time>2014-07-18T08:33:05.000Z</time>
      </trkpt>
      <trkpt lat="48.68145" lon="1.75589">
        <ele>151</ele>
        <time>2014-07-18T08:33:06.000Z</time>
      </trkpt>
      <trkpt lat="48.68153" lon="1.75592">
        <ele>151.19999694824</ele>
        <time>2014-07-18T08:33:12.000Z</time>
      </trkpt>
      <trkpt lat="48.68163" lon="1.75599">
        <ele>151.39999389648</ele>
        <time>2014-07-18T08:33:20.000Z</time>
      </trkpt>
      <trkpt lat="48.68172" lon="1.75604">
        <ele>151.60000610352</ele>
        <time>2014-07-18T08:33:27.000Z</time>
      </trkpt>
      <trkpt lat="48.68177" lon="1.75606">
        <ele>151.80000305176</ele>
        <time>2014-07-18T08:33:32.000Z</time>
      </trkpt>
      <trkpt lat="48.68189" lon="1.75613">
        <ele>152</ele>
        <time>2014-07-18T08:33:41.000Z</time>
      </trkpt>
      <trkpt lat="48.682" lon="1.75616">
        <ele>152.19999694824</ele>
        <time>2014-07-18T08:33:49.000Z</time>
      </trkpt>
      <trkpt lat="48.68212" lon="1.7562">
        <ele>152.39999389648</ele>
        <time>2014-07-18T08:33:58.000Z</time>
      </trkpt>
      <trkpt lat="48.68227" lon="1.75625">
        <ele>152.39999389648</ele>
        <time>2014-07-18T08:34:09.000Z</time>
      </trkpt>
      <trkpt lat="48.6824" lon="1.75629">
        <ele>152.60000610352</ele>
        <time>2014-07-18T08:34:18.000Z</time>
      </trkpt>
      <trkpt lat="48.68249" lon="1.75631">
        <ele>152.80000305176</ele>
        <time>2014-07-18T08:34:25.000Z</time>
      </trkpt>
      <trkpt lat="48.68258" lon="1.75633">
        <ele>152.80000305176</ele>
        <time>2014-07-18T08:34:33.000Z</time>
      </trkpt>
      <trkpt lat="48.68267" lon="1.75636">
        <ele>153</ele>
        <time>2014-07-18T08:34:40.000Z</time>
      </trkpt>
      <trkpt lat="48.6828" lon="1.75644">
        <ele>152.80000305176</ele>
        <time>2014-07-18T08:34:49.000Z</time>
      </trkpt>
      <trkpt lat="48.68294" lon="1.75647">
        <ele>152.80000305176</ele>
        <time>2014-07-18T08:34:59.000Z</time>
      </trkpt>
      <trkpt lat="48.68309" lon="1.75646">
        <ele>152.60000610352</ele>
        <time>2014-07-18T08:35:09.000Z</time>
      </trkpt>
      <trkpt lat="48.68322" lon="1.75644">
        <ele>152.39999389648</ele>
        <time>2014-07-18T08:35:18.000Z</time>
      </trkpt>
      <trkpt lat="48.68334" lon="1.75639">
        <ele>152.19999694824</ele>
        <time>2014-07-18T08:35:26.000Z</time>
      </trkpt>
      <trkpt lat="48.68344" lon="1.75631">
        <ele>152.19999694824</ele>
        <time>2014-07-18T08:35:34.000Z</time>
      </trkpt>
      <trkpt lat="48.68354" lon="1.75624">
        <ele>152.39999389648</ele>
        <time>2014-07-18T08:35:41.000Z</time>
      </trkpt>
      <trkpt lat="48.68368" lon="1.75617">
        <ele>152.80000305176</ele>
        <time>2014-07-18T08:35:51.000Z</time>
      </trkpt>
      <trkpt lat="48.6838" lon="1.75612">
        <ele>153.19999694824</ele>
        <time>2014-07-18T08:36:00.000Z</time>
      </trkpt>
      <trkpt lat="48.68391" lon="1.75603">
        <ele>153.60000610352</ele>
        <time>2014-07-18T08:36:09.000Z</time>
      </trkpt>
      <trkpt lat="48.68401" lon="1.75597">
        <ele>153.80000305176</ele>
        <time>2014-07-18T08:36:17.000Z</time>
      </trkpt>
      <trkpt lat="48.6841" lon="1.75591">
        <ele>154.19999694824</ele>
        <time>2014-07-18T08:36:24.000Z</time>
      </trkpt>
      <trkpt lat="48.68416" lon="1.75584">
        <ele>154.39999389648</ele>
        <time>2014-07-18T08:36:29.000Z</time>
      </trkpt>
      <trkpt lat="48.68418" lon="1.75581">
        <ele>154.39999389648</ele>
        <time>2014-07-18T08:36:31.000Z</time>
      </trkpt>
      <trkpt lat="48.68426" lon="1.75578">
        <ele>154.60000610352</ele>
        <time>2014-07-18T08:36:37.000Z</time>
      </trkpt>
      <trkpt lat="48.68434" lon="1.75574">
        <ele>154.80000305176</ele>
        <time>2014-07-18T08:36:43.000Z</time>
      </trkpt>
      <trkpt lat="48.68443" lon="1.7557">
        <ele>155</ele>
        <time>2014-07-18T08:36:50.000Z</time>
      </trkpt>
      <trkpt lat="48.68455" lon="1.75565">
        <ele>155.39999389648</ele>
        <time>2014-07-18T08:36:58.000Z</time>
      </trkpt>
      <trkpt lat="48.68463" lon="1.7556">
        <ele>155.80000305176</ele>
        <time>2014-07-18T08:37:04.000Z</time>
      </trkpt>
      <trkpt lat="48.68475" lon="1.75554">
        <ele>156.19999694824</ele>
        <time>2014-07-18T08:37:11.000Z</time>
      </trkpt>
      <trkpt lat="48.68486" lon="1.7555">
        <ele>156.60000610352</ele>
        <time>2014-07-18T08:37:19.000Z</time>
      </trkpt>
      <trkpt lat="48.68499" lon="1.75544">
        <ele>156.80000305176</ele>
        <time>2014-07-18T08:37:27.000Z</time>
      </trkpt>
      <trkpt lat="48.68507" lon="1.75541">
        <ele>156.80000305176</ele>
        <time>2014-07-18T08:37:33.000Z</time>
      </trkpt>
      <trkpt lat="48.68511" lon="1.75548">
        <ele>156.39999389648</ele>
        <time>2014-07-18T08:37:39.000Z</time>
      </trkpt>
      <trkpt lat="48.68513" lon="1.75562">
        <ele>155.60000610352</ele>
        <time>2014-07-18T08:37:47.000Z</time>
      </trkpt>
      <trkpt lat="48.68514" lon="1.75573">
        <ele>155</ele>
        <time>2014-07-18T08:37:52.000Z</time>
      </trkpt>
      <trkpt lat="48.68517" lon="1.75586">
        <ele>155</ele>
        <time>2014-07-18T08:37:58.000Z</time>
      </trkpt>
      <trkpt lat="48.68519" lon="1.75597">
        <ele>155</ele>
        <time>2014-07-18T08:38:04.000Z</time>
      </trkpt>
      <trkpt lat="48.6852" lon="1.7561">
        <ele>155</ele>
        <time>2014-07-18T08:38:10.000Z</time>
      </trkpt>
      <trkpt lat="48.68522" lon="1.75617">
        <ele>155</ele>
        <time>2014-07-18T08:38:13.000Z</time>
      </trkpt>
      <trkpt lat="48.68524" lon="1.75625">
        <ele>155.19999694824</ele>
        <time>2014-07-18T08:38:17.000Z</time>
      </trkpt>
      <trkpt lat="48.68528" lon="1.75647">
        <ele>155.19999694824</ele>
        <time>2014-07-18T08:38:27.000Z</time>
      </trkpt>
      <trkpt lat="48.68529" lon="1.75656">
        <ele>155.39999389648</ele>
        <time>2014-07-18T08:38:31.000Z</time>
      </trkpt>
      <trkpt lat="48.68531" lon="1.7567">
        <ele>155</ele>
        <time>2014-07-18T08:38:38.000Z</time>
      </trkpt>
      <trkpt lat="48.68533" lon="1.75692">
        <ele>154.60000610352</ele>
        <time>2014-07-18T08:38:47.000Z</time>
      </trkpt>
      <trkpt lat="48.68534" lon="1.75703">
        <ele>154.39999389648</ele>
        <time>2014-07-18T08:38:52.000Z</time>
      </trkpt>
      <trkpt lat="48.68535" lon="1.75712">
        <ele>154.19999694824</ele>
        <time>2014-07-18T08:38:56.000Z</time>
      </trkpt>
      <trkpt lat="48.68536" lon="1.7572">
        <ele>154</ele>
        <time>2014-07-18T08:39:00.000Z</time>
      </trkpt>
      <trkpt lat="48.68539" lon="1.75734">
        <ele>153.80000305176</ele>
        <time>2014-07-18T08:39:07.000Z</time>
      </trkpt>
      <trkpt lat="48.68539" lon="1.75736">
        <ele>153.80000305176</ele>
        <time>2014-07-18T08:39:08.000Z</time>
      </trkpt>
      <trkpt lat="48.68541" lon="1.7575">
        <ele>153.39999389648</ele>
        <time>2014-07-18T08:39:15.000Z</time>
      </trkpt>
      <trkpt lat="48.68541" lon="1.75751">
        <ele>153.39999389648</ele>
        <time>2014-07-18T08:39:16.000Z</time>
      </trkpt>
      <trkpt lat="48.68543" lon="1.75761">
        <ele>153.19999694824</ele>
        <time>2014-07-18T08:39:22.000Z</time>
      </trkpt>
      <trkpt lat="48.68544" lon="1.75779">
        <ele>153.19999694824</ele>
        <time>2014-07-18T08:39:29.000Z</time>
      </trkpt>
      <trkpt lat="48.68546" lon="1.75791">
        <ele>153</ele>
        <time>2014-07-18T08:39:35.000Z</time>
      </trkpt>
      <trkpt lat="48.68547" lon="1.75801">
        <ele>152.80000305176</ele>
        <time>2014-07-18T08:39:41.000Z</time>
      </trkpt>
      <trkpt lat="48.68547" lon="1.75804">
        <ele>152.80000305176</ele>
        <time>2014-07-18T08:39:42.000Z</time>
      </trkpt>
      <trkpt lat="48.68546" lon="1.75824">
        <ele>152.60000610352</ele>
        <time>2014-07-18T08:39:50.000Z</time>
      </trkpt>
      <trkpt lat="48.68549" lon="1.75842">
        <ele>152.39999389648</ele>
        <time>2014-07-18T08:39:58.000Z</time>
      </trkpt>
      <trkpt lat="48.68551" lon="1.75859">
        <ele>152.19999694824</ele>
        <time>2014-07-18T08:40:05.000Z</time>
      </trkpt>
      <trkpt lat="48.68551" lon="1.75864">
        <ele>152</ele>
        <time>2014-07-18T08:40:07.000Z</time>
      </trkpt>
      <trkpt lat="48.68554" lon="1.75885">
        <ele>151.39999389648</ele>
        <time>2014-07-18T08:40:17.000Z</time>
      </trkpt>
      <trkpt lat="48.68553" lon="1.75896">
        <ele>150.80000305176</ele>
        <time>2014-07-18T08:40:23.000Z</time>
      </trkpt>
      <trkpt lat="48.68555" lon="1.75909">
        <ele>150.80000305176</ele>
        <time>2014-07-18T08:40:30.000Z</time>
      </trkpt>
      <trkpt lat="48.68561" lon="1.75922">
        <ele>151</ele>
        <time>2014-07-18T08:40:38.000Z</time>
      </trkpt>
      <trkpt lat="48.68565" lon="1.7594">
        <ele>151.19999694824</ele>
        <time>2014-07-18T08:40:47.000Z</time>
      </trkpt>
      <trkpt lat="48.68565" lon="1.75954">
        <ele>151.19999694824</ele>
        <time>2014-07-18T08:40:54.000Z</time>
      </trkpt>
      <trkpt lat="48.68566" lon="1.75965">
        <ele>151.39999389648</ele>
        <time>2014-07-18T08:41:00.000Z</time>
      </trkpt>
      <trkpt lat="48.68567" lon="1.75971">
        <ele>151.60000610352</ele>
        <time>2014-07-18T08:41:03.000Z</time>
      </trkpt>
      <trkpt lat="48.68568" lon="1.75987">
        <ele>151.80000305176</ele>
        <time>2014-07-18T08:41:11.000Z</time>
      </trkpt>
      <trkpt lat="48.6857" lon="1.76001">
        <ele>151.80000305176</ele>
        <time>2014-07-18T08:41:18.000Z</time>
      </trkpt>
      <trkpt lat="48.68572" lon="1.76017">
        <ele>151.80000305176</ele>
        <time>2014-07-18T08:41:25.000Z</time>
      </trkpt>
      <trkpt lat="48.68575" lon="1.7603">
        <ele>152</ele>
        <time>2014-07-18T08:41:31.000Z</time>
      </trkpt>
      <trkpt lat="48.68575" lon="1.76037">
        <ele>152</ele>
        <time>2014-07-18T08:41:37.000Z</time>
      </trkpt>
      <trkpt lat="48.68578" lon="1.76048">
        <ele>152</ele>
        <time>2014-07-18T08:41:57.000Z</time>
      </trkpt>
      <trkpt lat="48.6858" lon="1.76067">
        <ele>152.19999694824</ele>
        <time>2014-07-18T08:42:05.000Z</time>
      </trkpt>
      <trkpt lat="48.68581" lon="1.76083">
        <ele>152.19999694824</ele>
        <time>2014-07-18T08:42:12.000Z</time>
      </trkpt>
      <trkpt lat="48.68583" lon="1.76097">
        <ele>152.19999694824</ele>
        <time>2014-07-18T08:42:18.000Z</time>
      </trkpt>
      <trkpt lat="48.68586" lon="1.76115">
        <ele>152.39999389648</ele>
        <time>2014-07-18T08:42:22.000Z</time>
      </trkpt>
      <trkpt lat="48.6859" lon="1.76135">
        <ele>152.60000610352</ele>
        <time>2014-07-18T08:42:27.000Z</time>
      </trkpt>
      <trkpt lat="48.68593" lon="1.7616">
        <ele>152.60000610352</ele>
        <time>2014-07-18T08:42:32.000Z</time>
      </trkpt>
      <trkpt lat="48.68597" lon="1.76183">
        <ele>152.39999389648</ele>
        <time>2014-07-18T08:42:37.000Z</time>
      </trkpt>
      <trkpt lat="48.68599" lon="1.762">
        <ele>152.19999694824</ele>
        <time>2014-07-18T08:42:42.000Z</time>
      </trkpt>
      <trkpt lat="48.68601" lon="1.76214">
        <ele>152.19999694824</ele>
        <time>2014-07-18T08:42:47.000Z</time>
      </trkpt>
      <trkpt lat="48.68605" lon="1.76239">
        <ele>152.19999694824</ele>
        <time>2014-07-18T08:42:52.000Z</time>
      </trkpt>
      <trkpt lat="48.68605" lon="1.76244">
        <ele>152.19999694824</ele>
        <time>2014-07-18T08:42:53.000Z</time>
      </trkpt>
      <trkpt lat="48.68613" lon="1.76274">
        <ele>152.39999389648</ele>
        <time>2014-07-18T08:42:59.000Z</time>
      </trkpt>
      <trkpt lat="48.68616" lon="1.76311">
        <ele>152.39999389648</ele>
        <time>2014-07-18T08:43:05.000Z</time>
      </trkpt>
      <trkpt lat="48.6862" lon="1.76352">
        <ele>153</ele>
        <time>2014-07-18T08:43:12.000Z</time>
      </trkpt>
      <trkpt lat="48.68623" lon="1.7638">
        <ele>153.60000610352</ele>
        <time>2014-07-18T08:43:17.000Z</time>
      </trkpt>
      <trkpt lat="48.68628" lon="1.76406">
        <ele>154.39999389648</ele>
        <time>2014-07-18T08:43:22.000Z</time>
      </trkpt>
      <trkpt lat="48.68632" lon="1.76427">
        <ele>154.39999389648</ele>
        <time>2014-07-18T08:43:27.000Z</time>
      </trkpt>
      <trkpt lat="48.68631" lon="1.76442">
        <ele>154.60000610352</ele>
        <time>2014-07-18T08:43:33.000Z</time>
      </trkpt>
      <trkpt lat="48.68631" lon="1.76449">
        <ele>154.80000305176</ele>
        <time>2014-07-18T08:43:38.000Z</time>
      </trkpt>
      <trkpt lat="48.68631" lon="1.76448">
        <ele>154.80000305176</ele>
        <time>2014-07-18T08:43:40.000Z</time>
      </trkpt>
      <trkpt lat="48.68626" lon="1.76439">
        <ele>154.19999694824</ele>
        <time>2014-07-18T08:43:49.000Z</time>
      </trkpt>
      <trkpt lat="48.68623" lon="1.76428">
        <ele>153.80000305176</ele>
        <time>2014-07-18T08:43:55.000Z</time>
      </trkpt>
      <trkpt lat="48.68619" lon="1.76411">
        <ele>153.39999389648</ele>
        <time>2014-07-18T08:44:04.000Z</time>
      </trkpt>
      <trkpt lat="48.68617" lon="1.76393">
        <ele>153.19999694824</ele>
        <time>2014-07-18T08:44:09.000Z</time>
      </trkpt>
      <trkpt lat="48.68613" lon="1.76367">
        <ele>152.60000610352</ele>
        <time>2014-07-18T08:44:15.000Z</time>
      </trkpt>
      <trkpt lat="48.68609" lon="1.76342">
        <ele>151.80000305176</ele>
        <time>2014-07-18T08:44:21.000Z</time>
      </trkpt>
      <trkpt lat="48.68605" lon="1.76318">
        <ele>151.19999694824</ele>
        <time>2014-07-18T08:44:26.000Z</time>
      </trkpt>
      <trkpt lat="48.68601" lon="1.76296">
        <ele>151.19999694824</ele>
        <time>2014-07-18T08:44:31.000Z</time>
      </trkpt>
      <trkpt lat="48.68598" lon="1.76273">
        <ele>151.39999389648</ele>
        <time>2014-07-18T08:44:36.000Z</time>
      </trkpt>
      <trkpt lat="48.68598" lon="1.7626">
        <ele>151.60000610352</ele>
        <time>2014-07-18T08:44:39.000Z</time>
      </trkpt>
      <trkpt lat="48.68595" lon="1.76239">
        <ele>151.80000305176</ele>
        <time>2014-07-18T08:44:44.000Z</time>
      </trkpt>
      <trkpt lat="48.68595" lon="1.76234">
        <ele>151.80000305176</ele>
        <time>2014-07-18T08:44:45.000Z</time>
      </trkpt>
      <trkpt lat="48.68591" lon="1.76205">
        <ele>152</ele>
        <time>2014-07-18T08:44:51.000Z</time>
      </trkpt>
      <trkpt lat="48.68589" lon="1.76178">
        <ele>152.19999694824</ele>
        <time>2014-07-18T08:44:56.000Z</time>
      </trkpt>
      <trkpt lat="48.68584" lon="1.76143">
        <ele>152.39999389648</ele>
        <time>2014-07-18T08:45:02.000Z</time>
      </trkpt>
      <trkpt lat="48.6858" lon="1.76116">
        <ele>152.19999694824</ele>
        <time>2014-07-18T08:45:07.000Z</time>
      </trkpt>
      <trkpt lat="48.68578" lon="1.76088">
        <ele>152.19999694824</ele>
        <time>2014-07-18T08:45:12.000Z</time>
      </trkpt>
      <trkpt lat="48.68576" lon="1.76066">
        <ele>152</ele>
        <time>2014-07-18T08:45:17.000Z</time>
      </trkpt>
      <trkpt lat="48.68572" lon="1.76045">
        <ele>151.80000305176</ele>
        <time>2014-07-18T08:45:24.000Z</time>
      </trkpt>
      <trkpt lat="48.68569" lon="1.7602">
        <ele>151.80000305176</ele>
        <time>2014-07-18T08:45:34.000Z</time>
      </trkpt>
      <trkpt lat="48.68571" lon="1.76007">
        <ele>151.80000305176</ele>
        <time>2014-07-18T08:45:40.000Z</time>
      </trkpt>
      <trkpt lat="48.68579" lon="1.76004">
        <ele>152.19999694824</ele>
        <time>2014-07-18T08:45:44.000Z</time>
      </trkpt>
      <trkpt lat="48.68594" lon="1.7601">
        <ele>152.60000610352</ele>
        <time>2014-07-18T08:45:50.000Z</time>
      </trkpt>
      <trkpt lat="48.68607" lon="1.76016">
        <ele>153.19999694824</ele>
        <time>2014-07-18T08:45:54.000Z</time>
      </trkpt>
      <trkpt lat="48.68627" lon="1.7602">
        <ele>154.39999389648</ele>
        <time>2014-07-18T08:45:59.000Z</time>
      </trkpt>
      <trkpt lat="48.68641" lon="1.76021">
        <ele>155.39999389648</ele>
        <time>2014-07-18T08:46:02.000Z</time>
      </trkpt>
      <trkpt lat="48.68648" lon="1.76024">
        <ele>156</ele>
        <time>2014-07-18T08:46:04.000Z</time>
      </trkpt>
      <trkpt lat="48.68672" lon="1.76031">
        <ele>157.80000305176</ele>
        <time>2014-07-18T08:46:10.000Z</time>
      </trkpt>
      <trkpt lat="48.68684" lon="1.76032">
        <ele>158.80000305176</ele>
        <time>2014-07-18T08:46:13.000Z</time>
      </trkpt>
      <trkpt lat="48.68695" lon="1.76036">
        <ele>159.39999389648</ele>
        <time>2014-07-18T08:46:16.000Z</time>
      </trkpt>
      <trkpt lat="48.68709" lon="1.76039">
        <ele>160.39999389648</ele>
        <time>2014-07-18T08:46:19.000Z</time>
      </trkpt>
      <trkpt lat="48.68716" lon="1.76043">
        <ele>160.80000305176</ele>
        <time>2014-07-18T08:46:21.000Z</time>
      </trkpt>
      <trkpt lat="48.68724" lon="1.76045">
        <ele>161.39999389648</ele>
        <time>2014-07-18T08:46:23.000Z</time>
      </trkpt>
      <trkpt lat="48.68741" lon="1.76051">
        <ele>162.39999389648</ele>
        <time>2014-07-18T08:46:27.000Z</time>
      </trkpt>
      <trkpt lat="48.68753" lon="1.76057">
        <ele>163</ele>
        <time>2014-07-18T08:46:30.000Z</time>
      </trkpt>
      <trkpt lat="48.68764" lon="1.76065">
        <ele>163.80000305176</ele>
        <time>2014-07-18T08:46:34.000Z</time>
      </trkpt>
      <trkpt lat="48.68789" lon="1.76076">
        <ele>164.80000305176</ele>
        <time>2014-07-18T08:46:42.000Z</time>
      </trkpt>
      <trkpt lat="48.68811" lon="1.76084">
        <ele>166</ele>
        <time>2014-07-18T08:46:48.000Z</time>
      </trkpt>
      <trkpt lat="48.68826" lon="1.76088">
        <ele>166.60000610352</ele>
        <time>2014-07-18T08:46:51.000Z</time>
      </trkpt>
      <trkpt lat="48.68839" lon="1.7609">
        <ele>167.19999694824</ele>
        <time>2014-07-18T08:46:53.000Z</time>
      </trkpt>
      <trkpt lat="48.68856" lon="1.76096">
        <ele>168.19999694824</ele>
        <time>2014-07-18T08:46:56.000Z</time>
      </trkpt>
      <trkpt lat="48.68877" lon="1.76102">
        <ele>169.80000305176</ele>
        <time>2014-07-18T08:47:00.000Z</time>
      </trkpt>
      <trkpt lat="48.68905" lon="1.7611">
        <ele>172</ele>
        <time>2014-07-18T08:47:06.000Z</time>
      </trkpt>
      <trkpt lat="48.68918" lon="1.76113">
        <ele>172.80000305176</ele>
        <time>2014-07-18T08:47:11.000Z</time>
      </trkpt>
      <trkpt lat="48.68931" lon="1.76113">
        <ele>173.60000610352</ele>
        <time>2014-07-18T08:47:15.000Z</time>
      </trkpt>
      <trkpt lat="48.68933" lon="1.76116">
        <ele>174</ele>
        <time>2014-07-18T08:47:17.000Z</time>
      </trkpt>
      <trkpt lat="48.6894" lon="1.76119">
        <ele>174.60000610352</ele>
        <time>2014-07-18T08:47:21.000Z</time>
      </trkpt>
      <trkpt lat="48.68947" lon="1.76121">
        <ele>175.19999694824</ele>
        <time>2014-07-18T08:47:26.000Z</time>
      </trkpt>
      <trkpt lat="48.68953" lon="1.76127">
        <ele>176.19999694824</ele>
        <time>2014-07-18T08:47:31.000Z</time>
      </trkpt>
      <trkpt lat="48.6896" lon="1.76131">
        <ele>176.80000305176</ele>
        <time>2014-07-18T08:47:35.000Z</time>
      </trkpt>
      <trkpt lat="48.68964" lon="1.76132">
        <ele>177.19999694824</ele>
        <time>2014-07-18T08:47:38.000Z</time>
      </trkpt>
      <trkpt lat="48.6897" lon="1.76139">
        <ele>178</ele>
        <time>2014-07-18T08:47:45.000Z</time>
      </trkpt>
      <trkpt lat="48.68972" lon="1.76139">
        <ele>178.19999694824</ele>
        <time>2014-07-18T08:47:46.000Z</time>
      </trkpt>
      <trkpt lat="48.68983" lon="1.76149">
        <ele>179.60000610352</ele>
        <time>2014-07-18T08:47:54.000Z</time>
      </trkpt>
      <trkpt lat="48.68985" lon="1.76149">
        <ele>179.80000305176</ele>
        <time>2014-07-18T08:47:55.000Z</time>
      </trkpt>
      <trkpt lat="48.68992" lon="1.76156">
        <ele>180.60000610352</ele>
        <time>2014-07-18T08:48:01.000Z</time>
      </trkpt>
      <trkpt lat="48.68993" lon="1.76156">
        <ele>180.80000305176</ele>
        <time>2014-07-18T08:48:03.000Z</time>
      </trkpt>
      <trkpt lat="48.69002" lon="1.76159">
        <ele>181.39999389648</ele>
        <time>2014-07-18T08:48:09.000Z</time>
      </trkpt>
      <trkpt lat="48.69004" lon="1.76161">
        <ele>181.60000610352</ele>
        <time>2014-07-18T08:48:11.000Z</time>
      </trkpt>
      <trkpt lat="48.69005" lon="1.76163">
        <ele>181.80000305176</ele>
        <time>2014-07-18T08:48:13.000Z</time>
      </trkpt>
      <trkpt lat="48.69011" lon="1.76164">
        <ele>182.19999694824</ele>
        <time>2014-07-18T08:48:17.000Z</time>
      </trkpt>
      <trkpt lat="48.69015" lon="1.76164">
        <ele>182.60000610352</ele>
        <time>2014-07-18T08:48:19.000Z</time>
      </trkpt>
      <trkpt lat="48.69022" lon="1.76172">
        <ele>183</ele>
        <time>2014-07-18T08:48:24.000Z</time>
      </trkpt>
      <trkpt lat="48.69023" lon="1.76173">
        <ele>183</ele>
        <time>2014-07-18T08:48:26.000Z</time>
      </trkpt>
      <trkpt lat="48.69034" lon="1.76177">
        <ele>183.19999694824</ele>
        <time>2014-07-18T08:48:33.000Z</time>
      </trkpt>
      <trkpt lat="48.69045" lon="1.76182">
        <ele>183.39999389648</ele>
        <time>2014-07-18T08:48:41.000Z</time>
      </trkpt>
      <trkpt lat="48.69049" lon="1.76187">
        <ele>183.39999389648</ele>
        <time>2014-07-18T08:48:45.000Z</time>
      </trkpt>
      <trkpt lat="48.69054" lon="1.76191">
        <ele>183.39999389648</ele>
        <time>2014-07-18T08:48:49.000Z</time>
      </trkpt>
      <trkpt lat="48.69062" lon="1.762">
        <ele>183.60000610352</ele>
        <time>2014-07-18T08:48:56.000Z</time>
      </trkpt>
      <trkpt lat="48.69068" lon="1.76205">
        <ele>183.60000610352</ele>
        <time>2014-07-18T08:49:01.000Z</time>
      </trkpt>
      <trkpt lat="48.69078" lon="1.76211">
        <ele>183.60000610352</ele>
        <time>2014-07-18T08:49:09.000Z</time>
      </trkpt>
      <trkpt lat="48.69086" lon="1.76219">
        <ele>183.80000305176</ele>
        <time>2014-07-18T08:49:16.000Z</time>
      </trkpt>
      <trkpt lat="48.69095" lon="1.76222">
        <ele>183.80000305176</ele>
        <time>2014-07-18T08:49:21.000Z</time>
      </trkpt>
      <trkpt lat="48.69097" lon="1.76224">
        <ele>183.80000305176</ele>
        <time>2014-07-18T08:49:22.000Z</time>
      </trkpt>
      <trkpt lat="48.69103" lon="1.76229">
        <ele>183.80000305176</ele>
        <time>2014-07-18T08:49:28.000Z</time>
      </trkpt>
      <trkpt lat="48.69111" lon="1.76232">
        <ele>183.80000305176</ele>
        <time>2014-07-18T08:49:32.000Z</time>
      </trkpt>
      <trkpt lat="48.69125" lon="1.76234">
        <ele>183.60000610352</ele>
        <time>2014-07-18T08:49:40.000Z</time>
      </trkpt>
      <trkpt lat="48.69131" lon="1.76235">
        <ele>183.60000610352</ele>
        <time>2014-07-18T08:49:44.000Z</time>
      </trkpt>
      <trkpt lat="48.6914" lon="1.76239">
        <ele>183.60000610352</ele>
        <time>2014-07-18T08:49:49.000Z</time>
      </trkpt>
      <trkpt lat="48.69145" lon="1.7624">
        <ele>183.39999389648</ele>
        <time>2014-07-18T08:49:51.000Z</time>
      </trkpt>
      <trkpt lat="48.69156" lon="1.76241">
        <ele>183.39999389648</ele>
        <time>2014-07-18T08:49:57.000Z</time>
      </trkpt>
      <trkpt lat="48.69162" lon="1.76243">
        <ele>183.19999694824</ele>
        <time>2014-07-18T08:50:01.000Z</time>
      </trkpt>
      <trkpt lat="48.69166" lon="1.76249">
        <ele>183.19999694824</ele>
        <time>2014-07-18T08:50:05.000Z</time>
      </trkpt>
      <trkpt lat="48.69173" lon="1.76253">
        <ele>183.19999694824</ele>
        <time>2014-07-18T08:50:10.000Z</time>
      </trkpt>
      <trkpt lat="48.69181" lon="1.76258">
        <ele>183</ele>
        <time>2014-07-18T08:50:15.000Z</time>
      </trkpt>
      <trkpt lat="48.6919" lon="1.76264">
        <ele>183</ele>
        <time>2014-07-18T08:50:21.000Z</time>
      </trkpt>
      <trkpt lat="48.69196" lon="1.76264">
        <ele>182.80000305176</ele>
        <time>2014-07-18T08:50:26.000Z</time>
      </trkpt>
      <trkpt lat="48.69197" lon="1.76253">
        <ele>182.80000305176</ele>
        <time>2014-07-18T08:50:32.000Z</time>
      </trkpt>
      <trkpt lat="48.69197" lon="1.76234">
        <ele>182.80000305176</ele>
        <time>2014-07-18T08:50:40.000Z</time>
      </trkpt>
      <trkpt lat="48.69197" lon="1.76221">
        <ele>182.19999694824</ele>
        <time>2014-07-18T08:50:45.000Z</time>
      </trkpt>
      <trkpt lat="48.69198" lon="1.76206">
        <ele>181.80000305176</ele>
        <time>2014-07-18T08:50:51.000Z</time>
      </trkpt>
      <trkpt lat="48.69199" lon="1.76192">
        <ele>181.19999694824</ele>
        <time>2014-07-18T08:50:57.000Z</time>
      </trkpt>
      <trkpt lat="48.69202" lon="1.7618">
        <ele>180.80000305176</ele>
        <time>2014-07-18T08:51:02.000Z</time>
      </trkpt>
      <trkpt lat="48.69207" lon="1.7617">
        <ele>180.39999389648</ele>
        <time>2014-07-18T08:51:07.000Z</time>
      </trkpt>
      <trkpt lat="48.69212" lon="1.76156">
        <ele>180.60000610352</ele>
        <time>2014-07-18T08:51:14.000Z</time>
      </trkpt>
      <trkpt lat="48.69214" lon="1.7614">
        <ele>180</ele>
        <time>2014-07-18T08:51:20.000Z</time>
      </trkpt>
      <trkpt lat="48.69214" lon="1.76137">
        <ele>179.80000305176</ele>
        <time>2014-07-18T08:51:21.000Z</time>
      </trkpt>
      <trkpt lat="48.69217" lon="1.7612">
        <ele>179</ele>
        <time>2014-07-18T08:51:28.000Z</time>
      </trkpt>
      <trkpt lat="48.69219" lon="1.76109">
        <ele>178.60000610352</ele>
        <time>2014-07-18T08:51:33.000Z</time>
      </trkpt>
      <trkpt lat="48.6922" lon="1.76103">
        <ele>178.39999389648</ele>
        <time>2014-07-18T08:51:35.000Z</time>
      </trkpt>
      <trkpt lat="48.69222" lon="1.76097">
        <ele>178.19999694824</ele>
        <time>2014-07-18T08:51:39.000Z</time>
      </trkpt>
      <trkpt lat="48.69225" lon="1.76083">
        <ele>177.80000305176</ele>
        <time>2014-07-18T08:51:46.000Z</time>
      </trkpt>
      <trkpt lat="48.69226" lon="1.76078">
        <ele>177.60000610352</ele>
        <time>2014-07-18T08:51:48.000Z</time>
      </trkpt>
      <trkpt lat="48.69227" lon="1.76064">
        <ele>177.19999694824</ele>
        <time>2014-07-18T08:51:54.000Z</time>
      </trkpt>
      <trkpt lat="48.69227" lon="1.76062">
        <ele>177.19999694824</ele>
        <time>2014-07-18T08:51:55.000Z</time>
      </trkpt>
      <trkpt lat="48.69229" lon="1.76043">
        <ele>176.60000610352</ele>
        <time>2014-07-18T08:52:04.000Z</time>
      </trkpt>
      <trkpt lat="48.69228" lon="1.76027">
        <ele>175.80000305176</ele>
        <time>2014-07-18T08:52:11.000Z</time>
      </trkpt>
      <trkpt lat="48.6923" lon="1.76018">
        <ele>175.39999389648</ele>
        <time>2014-07-18T08:52:15.000Z</time>
      </trkpt>
      <trkpt lat="48.69233" lon="1.76012">
        <ele>175</ele>
        <time>2014-07-18T08:52:19.000Z</time>
      </trkpt>
      <trkpt lat="48.69236" lon="1.75997">
        <ele>174.19999694824</ele>
        <time>2014-07-18T08:52:25.000Z</time>
      </trkpt>
      <trkpt lat="48.69235" lon="1.7598">
        <ele>173.19999694824</ele>
        <time>2014-07-18T08:52:32.000Z</time>
      </trkpt>
      <trkpt lat="48.69236" lon="1.75973">
        <ele>172.60000610352</ele>
        <time>2014-07-18T08:52:35.000Z</time>
      </trkpt>
      <trkpt lat="48.69233" lon="1.75952">
        <ele>171.39999389648</ele>
        <time>2014-07-18T08:52:44.000Z</time>
      </trkpt>
      <trkpt lat="48.69235" lon="1.75942">
        <ele>170.80000305176</ele>
        <time>2014-07-18T08:52:49.000Z</time>
      </trkpt>
      <trkpt lat="48.6924" lon="1.75928">
        <ele>170</ele>
        <time>2014-07-18T08:52:56.000Z</time>
      </trkpt>
      <trkpt lat="48.69244" lon="1.75919">
        <ele>169.60000610352</ele>
        <time>2014-07-18T08:53:01.000Z</time>
      </trkpt>
      <trkpt lat="48.69243" lon="1.75903">
        <ele>168.60000610352</ele>
        <time>2014-07-18T08:53:08.000Z</time>
      </trkpt>
      <trkpt lat="48.6924" lon="1.75888">
        <ele>168</ele>
        <time>2014-07-18T08:53:15.000Z</time>
      </trkpt>
      <trkpt lat="48.69244" lon="1.7588">
        <ele>167.80000305176</ele>
        <time>2014-07-18T08:53:20.000Z</time>
      </trkpt>
      <trkpt lat="48.69245" lon="1.75878">
        <ele>167.80000305176</ele>
        <time>2014-07-18T08:53:21.000Z</time>
      </trkpt>
      <trkpt lat="48.69248" lon="1.75875">
        <ele>167.60000610352</ele>
        <time>2014-07-18T08:53:24.000Z</time>
      </trkpt>
      <trkpt lat="48.69256" lon="1.7586">
        <ele>166.60000610352</ele>
        <time>2014-07-18T08:53:32.000Z</time>
      </trkpt>
      <trkpt lat="48.69257" lon="1.75858">
        <ele>166.39999389648</ele>
        <time>2014-07-18T08:53:33.000Z</time>
      </trkpt>
      <trkpt lat="48.69259" lon="1.75855">
        <ele>166.19999694824</ele>
        <time>2014-07-18T08:53:37.000Z</time>
      </trkpt>
      <trkpt lat="48.69269" lon="1.75848">
        <ele>165.60000610352</ele>
        <time>2014-07-18T08:53:44.000Z</time>
      </trkpt>
      <trkpt lat="48.69278" lon="1.75841">
        <ele>165.19999694824</ele>
        <time>2014-07-18T08:53:50.000Z</time>
      </trkpt>
      <trkpt lat="48.69288" lon="1.75844">
        <ele>165.19999694824</ele>
        <time>2014-07-18T08:53:57.000Z</time>
      </trkpt>
      <trkpt lat="48.6929" lon="1.75846">
        <ele>165.19999694824</ele>
        <time>2014-07-18T08:53:58.000Z</time>
      </trkpt>
      <trkpt lat="48.69299" lon="1.75858">
        <ele>165.80000305176</ele>
        <time>2014-07-18T08:54:05.000Z</time>
      </trkpt>
      <trkpt lat="48.69304" lon="1.75868">
        <ele>166.39999389648</ele>
        <time>2014-07-18T08:54:11.000Z</time>
      </trkpt>
      <trkpt lat="48.69306" lon="1.75872">
        <ele>166.60000610352</ele>
        <time>2014-07-18T08:54:13.000Z</time>
      </trkpt>
      <trkpt lat="48.69312" lon="1.7588">
        <ele>167</ele>
        <time>2014-07-18T08:54:19.000Z</time>
      </trkpt>
      <trkpt lat="48.69318" lon="1.75888">
        <ele>167.39999389648</ele>
        <time>2014-07-18T08:54:25.000Z</time>
      </trkpt>
      <trkpt lat="48.69331" lon="1.75901">
        <ele>168</ele>
        <time>2014-07-18T08:54:33.000Z</time>
      </trkpt>
      <trkpt lat="48.69332" lon="1.75902">
        <ele>168.19999694824</ele>
        <time>2014-07-18T08:54:34.000Z</time>
      </trkpt>
      <trkpt lat="48.69338" lon="1.75917">
        <ele>169</ele>
        <time>2014-07-18T08:54:42.000Z</time>
      </trkpt>
      <trkpt lat="48.69344" lon="1.75927">
        <ele>169.80000305176</ele>
        <time>2014-07-18T08:54:48.000Z</time>
      </trkpt>
      <trkpt lat="48.6935" lon="1.75941">
        <ele>170.60000610352</ele>
        <time>2014-07-18T08:54:56.000Z</time>
      </trkpt>
      <trkpt lat="48.69359" lon="1.75952">
        <ele>171.39999389648</ele>
        <time>2014-07-18T08:55:03.000Z</time>
      </trkpt>
      <trkpt lat="48.69364" lon="1.75959">
        <ele>172</ele>
        <time>2014-07-18T08:55:08.000Z</time>
      </trkpt>
      <trkpt lat="48.69373" lon="1.75973">
        <ele>173</ele>
        <time>2014-07-18T08:55:17.000Z</time>
      </trkpt>
      <trkpt lat="48.69376" lon="1.75982">
        <ele>173.60000610352</ele>
        <time>2014-07-18T08:55:21.000Z</time>
      </trkpt>
      <trkpt lat="48.6938" lon="1.75991">
        <ele>174.19999694824</ele>
        <time>2014-07-18T08:55:27.000Z</time>
      </trkpt>
      <trkpt lat="48.69382" lon="1.75997">
        <ele>174.39999389648</ele>
        <time>2014-07-18T08:55:31.000Z</time>
      </trkpt>
      <trkpt lat="48.69383" lon="1.76001">
        <ele>174.39999389648</ele>
        <time>2014-07-18T08:55:33.000Z</time>
      </trkpt>
      <trkpt lat="48.69389" lon="1.76011">
        <ele>174.80000305176</ele>
        <time>2014-07-18T08:55:41.000Z</time>
      </trkpt>
      <trkpt lat="48.69396" lon="1.76023">
        <ele>175.19999694824</ele>
        <time>2014-07-18T08:55:49.000Z</time>
      </trkpt>
      <trkpt lat="48.69408" lon="1.76029">
        <ele>175.39999389648</ele>
        <time>2014-07-18T08:55:56.000Z</time>
      </trkpt>
      <trkpt lat="48.6941" lon="1.76031">
        <ele>175.60000610352</ele>
        <time>2014-07-18T08:55:58.000Z</time>
      </trkpt>
      <trkpt lat="48.69418" lon="1.7604">
        <ele>175.80000305176</ele>
        <time>2014-07-18T08:56:06.000Z</time>
      </trkpt>
      <trkpt lat="48.69419" lon="1.76041">
        <ele>176</ele>
        <time>2014-07-18T08:56:07.000Z</time>
      </trkpt>
      <trkpt lat="48.69421" lon="1.7605">
        <ele>176.19999694824</ele>
        <time>2014-07-18T08:56:12.000Z</time>
      </trkpt>
      <trkpt lat="48.69423" lon="1.76055">
        <ele>176.39999389648</ele>
        <time>2014-07-18T08:56:15.000Z</time>
      </trkpt>
      <trkpt lat="48.69428" lon="1.76062">
        <ele>176.60000610352</ele>
        <time>2014-07-18T08:56:20.000Z</time>
      </trkpt>
      <trkpt lat="48.69431" lon="1.76069">
        <ele>177</ele>
        <time>2014-07-18T08:56:24.000Z</time>
      </trkpt>
      <trkpt lat="48.69437" lon="1.76076">
        <ele>177.39999389648</ele>
        <time>2014-07-18T08:56:29.000Z</time>
      </trkpt>
      <trkpt lat="48.69442" lon="1.76088">
        <ele>178</ele>
        <time>2014-07-18T08:56:36.000Z</time>
      </trkpt>
      <trkpt lat="48.69446" lon="1.76094">
        <ele>178.60000610352</ele>
        <time>2014-07-18T08:56:40.000Z</time>
      </trkpt>
      <trkpt lat="48.69449" lon="1.76104">
        <ele>179.19999694824</ele>
        <time>2014-07-18T08:56:45.000Z</time>
      </trkpt>
      <trkpt lat="48.69456" lon="1.76113">
        <ele>179.80000305176</ele>
        <time>2014-07-18T08:56:52.000Z</time>
      </trkpt>
      <trkpt lat="48.69459" lon="1.76116">
        <ele>180</ele>
        <time>2014-07-18T08:56:54.000Z</time>
      </trkpt>
      <trkpt lat="48.69467" lon="1.76127">
        <ele>180.80000305176</ele>
        <time>2014-07-18T08:57:01.000Z</time>
      </trkpt>
      <trkpt lat="48.69472" lon="1.76135">
        <ele>181.19999694824</ele>
        <time>2014-07-18T08:57:06.000Z</time>
      </trkpt>
      <trkpt lat="48.69476" lon="1.76149">
        <ele>182.19999694824</ele>
        <time>2014-07-18T08:57:13.000Z</time>
      </trkpt>
      <trkpt lat="48.69477" lon="1.76152">
        <ele>182.39999389648</ele>
        <time>2014-07-18T08:57:15.000Z</time>
      </trkpt>
      <trkpt lat="48.69482" lon="1.76161">
        <ele>182.60000610352</ele>
        <time>2014-07-18T08:57:21.000Z</time>
      </trkpt>
      <trkpt lat="48.69488" lon="1.7617">
        <ele>182.80000305176</ele>
        <time>2014-07-18T08:57:27.000Z</time>
      </trkpt>
      <trkpt lat="48.69494" lon="1.76182">
        <ele>183</ele>
        <time>2014-07-18T08:57:34.000Z</time>
      </trkpt>
      <trkpt lat="48.69496" lon="1.76191">
        <ele>183.19999694824</ele>
        <time>2014-07-18T08:57:39.000Z</time>
      </trkpt>
      <trkpt lat="48.69506" lon="1.762">
        <ele>183.39999389648</ele>
        <time>2014-07-18T08:57:47.000Z</time>
      </trkpt>
      <trkpt lat="48.6951" lon="1.76205">
        <ele>183.39999389648</ele>
        <time>2014-07-18T08:57:50.000Z</time>
      </trkpt>
      <trkpt lat="48.69513" lon="1.76209">
        <ele>183.60000610352</ele>
        <time>2014-07-18T08:57:53.000Z</time>
      </trkpt>
      <trkpt lat="48.69525" lon="1.7622">
        <ele>183.80000305176</ele>
        <time>2014-07-18T08:58:00.000Z</time>
      </trkpt>
      <trkpt lat="48.69531" lon="1.76228">
        <ele>183.80000305176</ele>
        <time>2014-07-18T08:58:05.000Z</time>
      </trkpt>
      <trkpt lat="48.69533" lon="1.7624">
        <ele>184</ele>
        <time>2014-07-18T08:58:11.000Z</time>
      </trkpt>
      <trkpt lat="48.69533" lon="1.76241">
        <ele>184</ele>
        <time>2014-07-18T08:58:12.000Z</time>
      </trkpt>
      <trkpt lat="48.69539" lon="1.76252">
        <ele>183.80000305176</ele>
        <time>2014-07-18T08:58:20.000Z</time>
      </trkpt>
      <trkpt lat="48.69544" lon="1.76263">
        <ele>183.60000610352</ele>
        <time>2014-07-18T08:58:27.000Z</time>
      </trkpt>
      <trkpt lat="48.6955" lon="1.7628">
        <ele>183.39999389648</ele>
        <time>2014-07-18T08:58:34.000Z</time>
      </trkpt>
      <trkpt lat="48.69557" lon="1.76287">
        <ele>183.39999389648</ele>
        <time>2014-07-18T08:58:39.000Z</time>
      </trkpt>
      <trkpt lat="48.69559" lon="1.76293">
        <ele>183.39999389648</ele>
        <time>2014-07-18T08:58:43.000Z</time>
      </trkpt>
      <trkpt lat="48.69563" lon="1.76296">
        <ele>183.19999694824</ele>
        <time>2014-07-18T08:58:51.000Z</time>
      </trkpt>
      <trkpt lat="48.69566" lon="1.76299">
        <ele>183.19999694824</ele>
        <time>2014-07-18T08:58:54.000Z</time>
      </trkpt>
      <trkpt lat="48.69575" lon="1.76311">
        <ele>183.19999694824</ele>
        <time>2014-07-18T08:59:02.000Z</time>
      </trkpt>
      <trkpt lat="48.69576" lon="1.76315">
        <ele>183</ele>
        <time>2014-07-18T08:59:04.000Z</time>
      </trkpt>
      <trkpt lat="48.6958" lon="1.7632">
        <ele>183</ele>
        <time>2014-07-18T08:59:08.000Z</time>
      </trkpt>
      <trkpt lat="48.69583" lon="1.76331">
        <ele>182.80000305176</ele>
        <time>2014-07-18T08:59:15.000Z</time>
      </trkpt>
      <trkpt lat="48.69588" lon="1.76341">
        <ele>182.80000305176</ele>
        <time>2014-07-18T08:59:21.000Z</time>
      </trkpt>
      <trkpt lat="48.6959" lon="1.76345">
        <ele>182.80000305176</ele>
        <time>2014-07-18T08:59:23.000Z</time>
      </trkpt>
      <trkpt lat="48.69596" lon="1.76354">
        <ele>182.60000610352</ele>
        <time>2014-07-18T08:59:29.000Z</time>
      </trkpt>
      <trkpt lat="48.69604" lon="1.76362">
        <ele>182.60000610352</ele>
        <time>2014-07-18T08:59:35.000Z</time>
      </trkpt>
      <trkpt lat="48.69609" lon="1.76371">
        <ele>182.39999389648</ele>
        <time>2014-07-18T08:59:41.000Z</time>
      </trkpt>
      <trkpt lat="48.69616" lon="1.76381">
        <ele>182.19999694824</ele>
        <time>2014-07-18T08:59:48.000Z</time>
      </trkpt>
      <trkpt lat="48.69618" lon="1.76384">
        <ele>182.19999694824</ele>
        <time>2014-07-18T08:59:49.000Z</time>
      </trkpt>
      <trkpt lat="48.69621" lon="1.76395">
        <ele>182.19999694824</ele>
        <time>2014-07-18T08:59:55.000Z</time>
      </trkpt>
      <trkpt lat="48.69621" lon="1.76397">
        <ele>182</ele>
        <time>2014-07-18T08:59:56.000Z</time>
      </trkpt>
      <trkpt lat="48.69625" lon="1.76405">
        <ele>182</ele>
        <time>2014-07-18T09:00:01.000Z</time>
      </trkpt>
      <trkpt lat="48.69629" lon="1.7641">
        <ele>182</ele>
        <time>2014-07-18T09:00:07.000Z</time>
      </trkpt>
      <trkpt lat="48.69633" lon="1.76414">
        <ele>182</ele>
        <time>2014-07-18T09:00:14.000Z</time>
      </trkpt>
      <trkpt lat="48.69637" lon="1.76418">
        <ele>182</ele>
        <time>2014-07-18T09:00:20.000Z</time>
      </trkpt>
      <trkpt lat="48.69641" lon="1.76426">
        <ele>182</ele>
        <time>2014-07-18T09:00:25.000Z</time>
      </trkpt>
      <trkpt lat="48.69641" lon="1.76428">
        <ele>182</ele>
        <time>2014-07-18T09:00:26.000Z</time>
      </trkpt>
      <trkpt lat="48.69647" lon="1.76437">
        <ele>182</ele>
        <time>2014-07-18T09:00:32.000Z</time>
      </trkpt>
      <trkpt lat="48.69652" lon="1.76446">
        <ele>182</ele>
        <time>2014-07-18T09:00:38.000Z</time>
      </trkpt>
      <trkpt lat="48.69653" lon="1.76448">
        <ele>182</ele>
        <time>2014-07-18T09:00:40.000Z</time>
      </trkpt>
      <trkpt lat="48.69656" lon="1.76454">
        <ele>182</ele>
        <time>2014-07-18T09:00:44.000Z</time>
      </trkpt>
      <trkpt lat="48.69663" lon="1.76466">
        <ele>182</ele>
        <time>2014-07-18T09:00:51.000Z</time>
      </trkpt>
      <trkpt lat="48.69666" lon="1.7647">
        <ele>181.80000305176</ele>
        <time>2014-07-18T09:00:54.000Z</time>
      </trkpt>
      <trkpt lat="48.69674" lon="1.7648">
        <ele>181.80000305176</ele>
        <time>2014-07-18T09:01:01.000Z</time>
      </trkpt>
      <trkpt lat="48.69677" lon="1.76488">
        <ele>181.60000610352</ele>
        <time>2014-07-18T09:01:05.000Z</time>
      </trkpt>
      <trkpt lat="48.69683" lon="1.76498">
        <ele>181.39999389648</ele>
        <time>2014-07-18T09:01:11.000Z</time>
      </trkpt>
      <trkpt lat="48.69689" lon="1.76511">
        <ele>181.19999694824</ele>
        <time>2014-07-18T09:01:18.000Z</time>
      </trkpt>
      <trkpt lat="48.69694" lon="1.76524">
        <ele>181.19999694824</ele>
        <time>2014-07-18T09:01:24.000Z</time>
      </trkpt>
      <trkpt lat="48.69697" lon="1.76528">
        <ele>181.19999694824</ele>
        <time>2014-07-18T09:01:27.000Z</time>
      </trkpt>
      <trkpt lat="48.69703" lon="1.7654">
        <ele>181</ele>
        <time>2014-07-18T09:01:34.000Z</time>
      </trkpt>
      <trkpt lat="48.69712" lon="1.76549">
        <ele>181.19999694824</ele>
        <time>2014-07-18T09:01:42.000Z</time>
      </trkpt>
      <trkpt lat="48.69715" lon="1.76552">
        <ele>181.39999389648</ele>
        <time>2014-07-18T09:01:44.000Z</time>
      </trkpt>
      <trkpt lat="48.6972" lon="1.76562">
        <ele>181.39999389648</ele>
        <time>2014-07-18T09:01:50.000Z</time>
      </trkpt>
      <trkpt lat="48.69726" lon="1.76572">
        <ele>181.39999389648</ele>
        <time>2014-07-18T09:01:56.000Z</time>
      </trkpt>
      <trkpt lat="48.69736" lon="1.76582">
        <ele>182</ele>
        <time>2014-07-18T09:02:03.000Z</time>
      </trkpt>
      <trkpt lat="48.69741" lon="1.76588">
        <ele>182.19999694824</ele>
        <time>2014-07-18T09:02:08.000Z</time>
      </trkpt>
      <trkpt lat="48.69742" lon="1.76589">
        <ele>182.19999694824</ele>
        <time>2014-07-18T09:02:09.000Z</time>
      </trkpt>
      <trkpt lat="48.69745" lon="1.76597">
        <ele>182.60000610352</ele>
        <time>2014-07-18T09:02:14.000Z</time>
      </trkpt>
      <trkpt lat="48.69751" lon="1.76605">
        <ele>182.80000305176</ele>
        <time>2014-07-18T09:02:21.000Z</time>
      </trkpt>
      <trkpt lat="48.69753" lon="1.76607">
        <ele>183</ele>
        <time>2014-07-18T09:02:22.000Z</time>
      </trkpt>
      <trkpt lat="48.69755" lon="1.76613">
        <ele>183.19999694824</ele>
        <time>2014-07-18T09:02:25.000Z</time>
      </trkpt>
      <trkpt lat="48.6976" lon="1.76618">
        <ele>183.39999389648</ele>
        <time>2014-07-18T09:02:30.000Z</time>
      </trkpt>
      <trkpt lat="48.69767" lon="1.7663">
        <ele>183.80000305176</ele>
        <time>2014-07-18T09:02:36.000Z</time>
      </trkpt>
      <trkpt lat="48.69773" lon="1.76639">
        <ele>184</ele>
        <time>2014-07-18T09:02:41.000Z</time>
      </trkpt>
      <trkpt lat="48.69782" lon="1.76648">
        <ele>184</ele>
        <time>2014-07-18T09:02:48.000Z</time>
      </trkpt>
      <trkpt lat="48.69787" lon="1.76656">
        <ele>184</ele>
        <time>2014-07-18T09:02:55.000Z</time>
      </trkpt>
      <trkpt lat="48.69796" lon="1.76665">
        <ele>184.19999694824</ele>
        <time>2014-07-18T09:03:01.000Z</time>
      </trkpt>
      <trkpt lat="48.69802" lon="1.76676">
        <ele>184.60000610352</ele>
        <time>2014-07-18T09:03:08.000Z</time>
      </trkpt>
      <trkpt lat="48.69808" lon="1.76684">
        <ele>184.80000305176</ele>
        <time>2014-07-18T09:03:14.000Z</time>
      </trkpt>
      <trkpt lat="48.69816" lon="1.76691">
        <ele>184.80000305176</ele>
        <time>2014-07-18T09:03:21.000Z</time>
      </trkpt>
      <trkpt lat="48.6982" lon="1.76695">
        <ele>185</ele>
        <time>2014-07-18T09:03:25.000Z</time>
      </trkpt>
      <trkpt lat="48.69829" lon="1.76707">
        <ele>185.19999694824</ele>
        <time>2014-07-18T09:03:33.000Z</time>
      </trkpt>
      <trkpt lat="48.69837" lon="1.76712">
        <ele>185.39999389648</ele>
        <time>2014-07-18T09:03:39.000Z</time>
      </trkpt>
      <trkpt lat="48.6984" lon="1.76717">
        <ele>185.39999389648</ele>
        <time>2014-07-18T09:03:42.000Z</time>
      </trkpt>
      <trkpt lat="48.69847" lon="1.76722">
        <ele>185.60000610352</ele>
        <time>2014-07-18T09:03:48.000Z</time>
      </trkpt>
      <trkpt lat="48.69854" lon="1.7673">
        <ele>185.80000305176</ele>
        <time>2014-07-18T09:03:54.000Z</time>
      </trkpt>
      <trkpt lat="48.69864" lon="1.76736">
        <ele>185.60000610352</ele>
        <time>2014-07-18T09:04:00.000Z</time>
      </trkpt>
      <trkpt lat="48.69872" lon="1.76745">
        <ele>185.39999389648</ele>
        <time>2014-07-18T09:04:07.000Z</time>
      </trkpt>
      <trkpt lat="48.69881" lon="1.76756">
        <ele>184.60000610352</ele>
        <time>2014-07-18T09:04:14.000Z</time>
      </trkpt>
      <trkpt lat="48.69887" lon="1.76767">
        <ele>184.19999694824</ele>
        <time>2014-07-18T09:04:21.000Z</time>
      </trkpt>
      <trkpt lat="48.69893" lon="1.76777">
        <ele>183.60000610352</ele>
        <time>2014-07-18T09:04:27.000Z</time>
      </trkpt>
      <trkpt lat="48.69902" lon="1.76785">
        <ele>183.19999694824</ele>
        <time>2014-07-18T09:04:34.000Z</time>
      </trkpt>
      <trkpt lat="48.69908" lon="1.76787">
        <ele>183</ele>
        <time>2014-07-18T09:04:40.000Z</time>
      </trkpt>
      <trkpt lat="48.69911" lon="1.76783">
        <ele>183</ele>
        <time>2014-07-18T09:04:42.000Z</time>
      </trkpt>
      <trkpt lat="48.69923" lon="1.76782">
        <ele>182.80000305176</ele>
        <time>2014-07-18T09:04:50.000Z</time>
      </trkpt>
      <trkpt lat="48.69933" lon="1.7678">
        <ele>182.60000610352</ele>
        <time>2014-07-18T09:04:57.000Z</time>
      </trkpt>
      <trkpt lat="48.69945" lon="1.76778">
        <ele>182.80000305176</ele>
        <time>2014-07-18T09:05:04.000Z</time>
      </trkpt>
      <trkpt lat="48.69953" lon="1.76778">
        <ele>183.19999694824</ele>
        <time>2014-07-18T09:05:09.000Z</time>
      </trkpt>
      <trkpt lat="48.69965" lon="1.76779">
        <ele>183.60000610352</ele>
        <time>2014-07-18T09:05:17.000Z</time>
      </trkpt>
      <trkpt lat="48.69973" lon="1.76778">
        <ele>183.80000305176</ele>
        <time>2014-07-18T09:05:23.000Z</time>
      </trkpt>
      <trkpt lat="48.6998" lon="1.76778">
        <ele>184</ele>
        <time>2014-07-18T09:05:29.000Z</time>
      </trkpt>
      <trkpt lat="48.6999" lon="1.76778">
        <ele>184.39999389648</ele>
        <time>2014-07-18T09:05:36.000Z</time>
      </trkpt>
      <trkpt lat="48.69997" lon="1.76778">
        <ele>184.39999389648</ele>
        <time>2014-07-18T09:05:40.000Z</time>
      </trkpt>
      <trkpt lat="48.70008" lon="1.76779">
        <ele>184.80000305176</ele>
        <time>2014-07-18T09:05:48.000Z</time>
      </trkpt>
      <trkpt lat="48.70016" lon="1.7678">
        <ele>185</ele>
        <time>2014-07-18T09:05:54.000Z</time>
      </trkpt>
      <trkpt lat="48.70024" lon="1.76783">
        <ele>185</ele>
        <time>2014-07-18T09:06:00.000Z</time>
      </trkpt>
      <trkpt lat="48.70025" lon="1.76783">
        <ele>185</ele>
        <time>2014-07-18T09:06:01.000Z</time>
      </trkpt>
      <trkpt lat="48.70035" lon="1.7678">
        <ele>185.19999694824</ele>
        <time>2014-07-18T09:06:08.000Z</time>
      </trkpt>
      <trkpt lat="48.70042" lon="1.7678">
        <ele>185.19999694824</ele>
        <time>2014-07-18T09:06:13.000Z</time>
      </trkpt>
      <trkpt lat="48.70051" lon="1.76784">
        <ele>185.19999694824</ele>
        <time>2014-07-18T09:06:20.000Z</time>
      </trkpt>
      <trkpt lat="48.70059" lon="1.76782">
        <ele>185.39999389648</ele>
        <time>2014-07-18T09:06:26.000Z</time>
      </trkpt>
      <trkpt lat="48.70068" lon="1.76781">
        <ele>185.39999389648</ele>
        <time>2014-07-18T09:06:33.000Z</time>
      </trkpt>
      <trkpt lat="48.70077" lon="1.76781">
        <ele>185.39999389648</ele>
        <time>2014-07-18T09:06:39.000Z</time>
      </trkpt>
      <trkpt lat="48.70086" lon="1.76782">
        <ele>185.39999389648</ele>
        <time>2014-07-18T09:06:45.000Z</time>
      </trkpt>
      <trkpt lat="48.70098" lon="1.76781">
        <ele>185.39999389648</ele>
        <time>2014-07-18T09:06:52.000Z</time>
      </trkpt>
      <trkpt lat="48.70106" lon="1.76783">
        <ele>185.19999694824</ele>
        <time>2014-07-18T09:06:58.000Z</time>
      </trkpt>
      <trkpt lat="48.70107" lon="1.76784">
        <ele>185.19999694824</ele>
        <time>2014-07-18T09:06:59.000Z</time>
      </trkpt>
      <trkpt lat="48.70111" lon="1.76786">
        <ele>185</ele>
        <time>2014-07-18T09:07:03.000Z</time>
      </trkpt>
      <trkpt lat="48.70123" lon="1.76786">
        <ele>184.19999694824</ele>
        <time>2014-07-18T09:07:11.000Z</time>
      </trkpt>
      <trkpt lat="48.70129" lon="1.76784">
        <ele>184</ele>
        <time>2014-07-18T09:07:14.000Z</time>
      </trkpt>
      <trkpt lat="48.70137" lon="1.76783">
        <ele>183.39999389648</ele>
        <time>2014-07-18T09:07:21.000Z</time>
      </trkpt>
      <trkpt lat="48.70143" lon="1.76782">
        <ele>183</ele>
        <time>2014-07-18T09:07:27.000Z</time>
      </trkpt>
      <trkpt lat="48.70146" lon="1.76781">
        <ele>183</ele>
        <time>2014-07-18T09:07:29.000Z</time>
      </trkpt>
      <trkpt lat="48.70154" lon="1.76775">
        <ele>182.60000610352</ele>
        <time>2014-07-18T09:07:37.000Z</time>
      </trkpt>
      <trkpt lat="48.70163" lon="1.76767">
        <ele>182.39999389648</ele>
        <time>2014-07-18T09:07:44.000Z</time>
      </trkpt>
      <trkpt lat="48.70164" lon="1.76766">
        <ele>182.39999389648</ele>
        <time>2014-07-18T09:07:45.000Z</time>
      </trkpt>
      <trkpt lat="48.70166" lon="1.76761">
        <ele>182.39999389648</ele>
        <time>2014-07-18T09:07:49.000Z</time>
      </trkpt>
      <trkpt lat="48.70172" lon="1.76756">
        <ele>182.19999694824</ele>
        <time>2014-07-18T09:07:55.000Z</time>
      </trkpt>
      <trkpt lat="48.70179" lon="1.76747">
        <ele>182.19999694824</ele>
        <time>2014-07-18T09:08:01.000Z</time>
      </trkpt>
      <trkpt lat="48.7018" lon="1.76746">
        <ele>182.19999694824</ele>
        <time>2014-07-18T09:08:02.000Z</time>
      </trkpt>
      <trkpt lat="48.70189" lon="1.76733">
        <ele>182</ele>
        <time>2014-07-18T09:08:09.000Z</time>
      </trkpt>
      <trkpt lat="48.70195" lon="1.76727">
        <ele>182</ele>
        <time>2014-07-18T09:08:13.000Z</time>
      </trkpt>
      <trkpt lat="48.70203" lon="1.76721">
        <ele>182</ele>
        <time>2014-07-18T09:08:19.000Z</time>
      </trkpt>
      <trkpt lat="48.70209" lon="1.76718">
        <ele>182</ele>
        <time>2014-07-18T09:08:26.000Z</time>
      </trkpt>
      <trkpt lat="48.70217" lon="1.76714">
        <ele>181.80000305176</ele>
        <time>2014-07-18T09:08:33.000Z</time>
      </trkpt>
      <trkpt lat="48.70228" lon="1.76705">
        <ele>181.80000305176</ele>
        <time>2014-07-18T09:08:39.000Z</time>
      </trkpt>
      <trkpt lat="48.70237" lon="1.76702">
        <ele>181.60000610352</ele>
        <time>2014-07-18T09:08:45.000Z</time>
      </trkpt>
      <trkpt lat="48.70241" lon="1.767">
        <ele>181.39999389648</ele>
        <time>2014-07-18T09:08:51.000Z</time>
      </trkpt>
      <trkpt lat="48.70243" lon="1.767">
        <ele>181.39999389648</ele>
        <time>2014-07-18T09:08:52.000Z</time>
      </trkpt>
      <trkpt lat="48.70252" lon="1.76691">
        <ele>180.80000305176</ele>
        <time>2014-07-18T09:08:58.000Z</time>
      </trkpt>
      <trkpt lat="48.70254" lon="1.76691">
        <ele>180.80000305176</ele>
        <time>2014-07-18T09:08:59.000Z</time>
      </trkpt>
      <trkpt lat="48.70267" lon="1.76685">
        <ele>180.19999694824</ele>
        <time>2014-07-18T09:09:06.000Z</time>
      </trkpt>
      <trkpt lat="48.70278" lon="1.7668">
        <ele>179.80000305176</ele>
        <time>2014-07-18T09:09:15.000Z</time>
      </trkpt>
      <trkpt lat="48.70285" lon="1.76675">
        <ele>179.60000610352</ele>
        <time>2014-07-18T09:09:21.000Z</time>
      </trkpt>
      <trkpt lat="48.70299" lon="1.76668">
        <ele>179.39999389648</ele>
        <time>2014-07-18T09:09:30.000Z</time>
      </trkpt>
      <trkpt lat="48.70302" lon="1.76665">
        <ele>179.19999694824</ele>
        <time>2014-07-18T09:09:34.000Z</time>
      </trkpt>
      <trkpt lat="48.70306" lon="1.76661">
        <ele>179.19999694824</ele>
        <time>2014-07-18T09:09:36.000Z</time>
      </trkpt>
      <trkpt lat="48.70315" lon="1.76656">
        <ele>179</ele>
        <time>2014-07-18T09:09:44.000Z</time>
      </trkpt>
      <trkpt lat="48.70324" lon="1.76648">
        <ele>178.80000305176</ele>
        <time>2014-07-18T09:09:50.000Z</time>
      </trkpt>
      <trkpt lat="48.70333" lon="1.76641">
        <ele>178.39999389648</ele>
        <time>2014-07-18T09:09:57.000Z</time>
      </trkpt>
      <trkpt lat="48.70338" lon="1.76635">
        <ele>178.39999389648</ele>
        <time>2014-07-18T09:10:02.000Z</time>
      </trkpt>
      <trkpt lat="48.70346" lon="1.76627">
        <ele>178.19999694824</ele>
        <time>2014-07-18T09:10:08.000Z</time>
      </trkpt>
      <trkpt lat="48.70353" lon="1.7662">
        <ele>178</ele>
        <time>2014-07-18T09:10:14.000Z</time>
      </trkpt>
      <trkpt lat="48.70358" lon="1.76617">
        <ele>178</ele>
        <time>2014-07-18T09:10:19.000Z</time>
      </trkpt>
      <trkpt lat="48.70361" lon="1.76615">
        <ele>178.19999694824</ele>
        <time>2014-07-18T09:10:21.000Z</time>
      </trkpt>
      <trkpt lat="48.70368" lon="1.76615">
        <ele>178.39999389648</ele>
        <time>2014-07-18T09:10:27.000Z</time>
      </trkpt>
      <trkpt lat="48.70372" lon="1.76612">
        <ele>178.39999389648</ele>
        <time>2014-07-18T09:10:32.000Z</time>
      </trkpt>
      <trkpt lat="48.70381" lon="1.76606">
        <ele>178.60000610352</ele>
        <time>2014-07-18T09:10:39.000Z</time>
      </trkpt>
      <trkpt lat="48.70389" lon="1.76603">
        <ele>178.80000305176</ele>
        <time>2014-07-18T09:10:44.000Z</time>
      </trkpt>
      <trkpt lat="48.70394" lon="1.76601">
        <ele>179</ele>
        <time>2014-07-18T09:10:48.000Z</time>
      </trkpt>
      <trkpt lat="48.70404" lon="1.76592">
        <ele>179.60000610352</ele>
        <time>2014-07-18T09:10:54.000Z</time>
      </trkpt>
      <trkpt lat="48.70413" lon="1.76587">
        <ele>180</ele>
        <time>2014-07-18T09:10:59.000Z</time>
      </trkpt>
      <trkpt lat="48.70418" lon="1.76586">
        <ele>180.19999694824</ele>
        <time>2014-07-18T09:11:04.000Z</time>
      </trkpt>
      <trkpt lat="48.70426" lon="1.7658">
        <ele>180.60000610352</ele>
        <time>2014-07-18T09:11:09.000Z</time>
      </trkpt>
      <trkpt lat="48.70432" lon="1.76567">
        <ele>180.80000305176</ele>
        <time>2014-07-18T09:11:15.000Z</time>
      </trkpt>
      <trkpt lat="48.70435" lon="1.76555">
        <ele>181.19999694824</ele>
        <time>2014-07-18T09:11:22.000Z</time>
      </trkpt>
      <trkpt lat="48.70439" lon="1.76539">
        <ele>181.19999694824</ele>
        <time>2014-07-18T09:11:30.000Z</time>
      </trkpt>
      <trkpt lat="48.70441" lon="1.76526">
        <ele>181.39999389648</ele>
        <time>2014-07-18T09:11:36.000Z</time>
      </trkpt>
      <trkpt lat="48.70443" lon="1.7652">
        <ele>181.39999389648</ele>
        <time>2014-07-18T09:11:39.000Z</time>
      </trkpt>
      <trkpt lat="48.70444" lon="1.76506">
        <ele>181.39999389648</ele>
        <time>2014-07-18T09:11:46.000Z</time>
      </trkpt>
      <trkpt lat="48.70446" lon="1.76498">
        <ele>181.39999389648</ele>
        <time>2014-07-18T09:11:49.000Z</time>
      </trkpt>
      <trkpt lat="48.70451" lon="1.7648">
        <ele>180.60000610352</ele>
        <time>2014-07-18T09:11:57.000Z</time>
      </trkpt>
      <trkpt lat="48.70452" lon="1.76468">
        <ele>180</ele>
        <time>2014-07-18T09:12:03.000Z</time>
      </trkpt>
      <trkpt lat="48.70455" lon="1.76452">
        <ele>179</ele>
        <time>2014-07-18T09:12:10.000Z</time>
      </trkpt>
      <trkpt lat="48.70456" lon="1.76447">
        <ele>178.60000610352</ele>
        <time>2014-07-18T09:12:12.000Z</time>
      </trkpt>
      <trkpt lat="48.70459" lon="1.76426">
        <ele>177.39999389648</ele>
        <time>2014-07-18T09:12:21.000Z</time>
      </trkpt>
      <trkpt lat="48.70459" lon="1.7642">
        <ele>177.39999389648</ele>
        <time>2014-07-18T09:12:24.000Z</time>
      </trkpt>
      <trkpt lat="48.7046" lon="1.76416">
        <ele>177.19999694824</ele>
        <time>2014-07-18T09:12:27.000Z</time>
      </trkpt>
      <trkpt lat="48.70458" lon="1.764">
        <ele>177</ele>
        <time>2014-07-18T09:12:34.000Z</time>
      </trkpt>
      <trkpt lat="48.70458" lon="1.76395">
        <ele>176.80000305176</ele>
        <time>2014-07-18T09:12:36.000Z</time>
      </trkpt>
      <trkpt lat="48.70459" lon="1.76385">
        <ele>176.19999694824</ele>
        <time>2014-07-18T09:12:44.000Z</time>
      </trkpt>
      <trkpt lat="48.70461" lon="1.7638">
        <ele>176</ele>
        <time>2014-07-18T09:12:53.000Z</time>
      </trkpt>
      <trkpt lat="48.7046" lon="1.76383">
        <ele>176.19999694824</ele>
        <time>2014-07-18T09:12:59.000Z</time>
      </trkpt>
      <trkpt lat="48.7046" lon="1.7638">
        <ele>176</ele>
        <time>2014-07-18T09:13:04.000Z</time>
      </trkpt>
      <trkpt lat="48.70459" lon="1.76376">
        <ele>175.80000305176</ele>
        <time>2014-07-18T09:13:11.000Z</time>
      </trkpt>
      <trkpt lat="48.70464" lon="1.76374">
        <ele>175.60000610352</ele>
        <time>2014-07-18T09:13:18.000Z</time>
      </trkpt>
      <trkpt lat="48.70469" lon="1.76374">
        <ele>175.39999389648</ele>
        <time>2014-07-18T09:13:22.000Z</time>
      </trkpt>
      <trkpt lat="48.70483" lon="1.76372">
        <ele>174.80000305176</ele>
        <time>2014-07-18T09:13:32.000Z</time>
      </trkpt>
      <trkpt lat="48.70496" lon="1.76378">
        <ele>174.60000610352</ele>
        <time>2014-07-18T09:13:41.000Z</time>
      </trkpt>
      <trkpt lat="48.70508" lon="1.76389">
        <ele>174.60000610352</ele>
        <time>2014-07-18T09:13:50.000Z</time>
      </trkpt>
      <trkpt lat="48.70522" lon="1.76399">
        <ele>174.60000610352</ele>
        <time>2014-07-18T09:14:00.000Z</time>
      </trkpt>
      <trkpt lat="48.70534" lon="1.76406">
        <ele>174.39999389648</ele>
        <time>2014-07-18T09:14:09.000Z</time>
      </trkpt>
      <trkpt lat="48.70547" lon="1.76411">
        <ele>174</ele>
        <time>2014-07-18T09:14:18.000Z</time>
      </trkpt>
      <trkpt lat="48.7056" lon="1.76416">
        <ele>173.60000610352</ele>
        <time>2014-07-18T09:14:28.000Z</time>
      </trkpt>
      <trkpt lat="48.70573" lon="1.7642">
        <ele>173</ele>
        <time>2014-07-18T09:14:38.000Z</time>
      </trkpt>
      <trkpt lat="48.70583" lon="1.76423">
        <ele>172.80000305176</ele>
        <time>2014-07-18T09:14:45.000Z</time>
      </trkpt>
      <trkpt lat="48.7059" lon="1.76426">
        <ele>172.39999389648</ele>
        <time>2014-07-18T09:14:52.000Z</time>
      </trkpt>
      <trkpt lat="48.70598" lon="1.76429">
        <ele>172.19999694824</ele>
        <time>2014-07-18T09:15:14.000Z</time>
      </trkpt>
      <trkpt lat="48.70611" lon="1.76433">
        <ele>172</ele>
        <time>2014-07-18T09:15:22.000Z</time>
      </trkpt>
      <trkpt lat="48.70624" lon="1.76437">
        <ele>172</ele>
        <time>2014-07-18T09:15:31.000Z</time>
      </trkpt>
      <trkpt lat="48.70635" lon="1.76441">
        <ele>172</ele>
        <time>2014-07-18T09:15:39.000Z</time>
      </trkpt>
      <trkpt lat="48.70647" lon="1.76447">
        <ele>172</ele>
        <time>2014-07-18T09:15:48.000Z</time>
      </trkpt>
      <trkpt lat="48.70661" lon="1.76451">
        <ele>172.19999694824</ele>
        <time>2014-07-18T09:15:58.000Z</time>
      </trkpt>
      <trkpt lat="48.7067" lon="1.76455">
        <ele>172.19999694824</ele>
        <time>2014-07-18T09:16:05.000Z</time>
      </trkpt>
      <trkpt lat="48.70678" lon="1.76458">
        <ele>172.19999694824</ele>
        <time>2014-07-18T09:16:12.000Z</time>
      </trkpt>
      <trkpt lat="48.70684" lon="1.76459">
        <ele>172.39999389648</ele>
        <time>2014-07-18T09:16:16.000Z</time>
      </trkpt>
      <trkpt lat="48.70689" lon="1.76462">
        <ele>172.39999389648</ele>
        <time>2014-07-18T09:16:20.000Z</time>
      </trkpt>
      <trkpt lat="48.70699" lon="1.76466">
        <ele>172.19999694824</ele>
        <time>2014-07-18T09:16:27.000Z</time>
      </trkpt>
      <trkpt lat="48.70707" lon="1.76468">
        <ele>172.19999694824</ele>
        <time>2014-07-18T09:16:33.000Z</time>
      </trkpt>
      <trkpt lat="48.70722" lon="1.76472">
        <ele>172.19999694824</ele>
        <time>2014-07-18T09:16:43.000Z</time>
      </trkpt>
      <trkpt lat="48.70734" lon="1.76476">
        <ele>172.19999694824</ele>
        <time>2014-07-18T09:16:52.000Z</time>
      </trkpt>
      <trkpt lat="48.70741" lon="1.76476">
        <ele>172.19999694824</ele>
        <time>2014-07-18T09:16:58.000Z</time>
      </trkpt>
      <trkpt lat="48.70749" lon="1.76477">
        <ele>172.19999694824</ele>
        <time>2014-07-18T09:17:04.000Z</time>
      </trkpt>
      <trkpt lat="48.70759" lon="1.76478">
        <ele>172.19999694824</ele>
        <time>2014-07-18T09:17:11.000Z</time>
      </trkpt>
      <trkpt lat="48.7077" lon="1.76479">
        <ele>172.19999694824</ele>
        <time>2014-07-18T09:17:19.000Z</time>
      </trkpt>
      <trkpt lat="48.70783" lon="1.76478">
        <ele>172.19999694824</ele>
        <time>2014-07-18T09:17:28.000Z</time>
      </trkpt>
      <trkpt lat="48.70796" lon="1.76478">
        <ele>172.19999694824</ele>
        <time>2014-07-18T09:17:37.000Z</time>
      </trkpt>
      <trkpt lat="48.70808" lon="1.7648">
        <ele>172.19999694824</ele>
        <time>2014-07-18T09:17:45.000Z</time>
      </trkpt>
      <trkpt lat="48.70818" lon="1.76479">
        <ele>172.19999694824</ele>
        <time>2014-07-18T09:17:52.000Z</time>
      </trkpt>
      <trkpt lat="48.70829" lon="1.7648">
        <ele>172.19999694824</ele>
        <time>2014-07-18T09:18:00.000Z</time>
      </trkpt>
      <trkpt lat="48.70837" lon="1.76479">
        <ele>172.19999694824</ele>
        <time>2014-07-18T09:18:06.000Z</time>
      </trkpt>
      <trkpt lat="48.70848" lon="1.76479">
        <ele>172.19999694824</ele>
        <time>2014-07-18T09:18:14.000Z</time>
      </trkpt>
      <trkpt lat="48.70863" lon="1.76479">
        <ele>172</ele>
        <time>2014-07-18T09:18:24.000Z</time>
      </trkpt>
      <trkpt lat="48.70873" lon="1.76479">
        <ele>171.80000305176</ele>
        <time>2014-07-18T09:18:32.000Z</time>
      </trkpt>
      <trkpt lat="48.70882" lon="1.76478">
        <ele>171.80000305176</ele>
        <time>2014-07-18T09:18:38.000Z</time>
      </trkpt>
      <trkpt lat="48.70888" lon="1.76478">
        <ele>171.60000610352</ele>
        <time>2014-07-18T09:18:42.000Z</time>
      </trkpt>
      <trkpt lat="48.70903" lon="1.76478">
        <ele>171.60000610352</ele>
        <time>2014-07-18T09:18:51.000Z</time>
      </trkpt>
      <trkpt lat="48.70915" lon="1.76478">
        <ele>171.39999389648</ele>
        <time>2014-07-18T09:18:59.000Z</time>
      </trkpt>
      <trkpt lat="48.70926" lon="1.76478">
        <ele>171.19999694824</ele>
        <time>2014-07-18T09:19:07.000Z</time>
      </trkpt>
      <trkpt lat="48.70934" lon="1.76478">
        <ele>171.19999694824</ele>
        <time>2014-07-18T09:19:13.000Z</time>
      </trkpt>
      <trkpt lat="48.7095" lon="1.76477">
        <ele>171</ele>
        <time>2014-07-18T09:19:23.000Z</time>
      </trkpt>
      <trkpt lat="48.70963" lon="1.76477">
        <ele>170.80000305176</ele>
        <time>2014-07-18T09:19:32.000Z</time>
      </trkpt>
      <trkpt lat="48.70976" lon="1.76476">
        <ele>170.60000610352</ele>
        <time>2014-07-18T09:19:40.000Z</time>
      </trkpt>
      <trkpt lat="48.70986" lon="1.76477">
        <ele>170.60000610352</ele>
        <time>2014-07-18T09:19:47.000Z</time>
      </trkpt>
      <trkpt lat="48.70997" lon="1.76477">
        <ele>170.39999389648</ele>
        <time>2014-07-18T09:19:55.000Z</time>
      </trkpt>
      <trkpt lat="48.71009" lon="1.76477">
        <ele>170.19999694824</ele>
        <time>2014-07-18T09:20:03.000Z</time>
      </trkpt>
      <trkpt lat="48.71021" lon="1.76476">
        <ele>170</ele>
        <time>2014-07-18T09:20:12.000Z</time>
      </trkpt>
      <trkpt lat="48.71031" lon="1.76473">
        <ele>169.60000610352</ele>
        <time>2014-07-18T09:20:19.000Z</time>
      </trkpt>
      <trkpt lat="48.71047" lon="1.76469">
        <ele>169</ele>
        <time>2014-07-18T09:20:30.000Z</time>
      </trkpt>
      <trkpt lat="48.71059" lon="1.76465">
        <ele>168.60000610352</ele>
        <time>2014-07-18T09:20:39.000Z</time>
      </trkpt>
      <trkpt lat="48.71077" lon="1.76459">
        <ele>168</ele>
        <time>2014-07-18T09:20:51.000Z</time>
      </trkpt>
      <trkpt lat="48.71089" lon="1.76455">
        <ele>168</ele>
        <time>2014-07-18T09:20:59.000Z</time>
      </trkpt>
      <trkpt lat="48.71097" lon="1.76453">
        <ele>168</ele>
        <time>2014-07-18T09:21:04.000Z</time>
      </trkpt>
      <trkpt lat="48.71109" lon="1.76447">
        <ele>168</ele>
        <time>2014-07-18T09:21:12.000Z</time>
      </trkpt>
      <trkpt lat="48.71119" lon="1.76441">
        <ele>168</ele>
        <time>2014-07-18T09:21:20.000Z</time>
      </trkpt>
      <trkpt lat="48.71125" lon="1.76439">
        <ele>168</ele>
        <time>2014-07-18T09:21:24.000Z</time>
      </trkpt>
      <trkpt lat="48.7114" lon="1.76433">
        <ele>168</ele>
        <time>2014-07-18T09:21:34.000Z</time>
      </trkpt>
      <trkpt lat="48.71154" lon="1.76429">
        <ele>168.19999694824</ele>
        <time>2014-07-18T09:21:44.000Z</time>
      </trkpt>
      <trkpt lat="48.71168" lon="1.76428">
        <ele>168.19999694824</ele>
        <time>2014-07-18T09:21:53.000Z</time>
      </trkpt>
      <trkpt lat="48.71178" lon="1.76427">
        <ele>168.19999694824</ele>
        <time>2014-07-18T09:22:00.000Z</time>
      </trkpt>
      <trkpt lat="48.71188" lon="1.76425">
        <ele>168.19999694824</ele>
        <time>2014-07-18T09:22:07.000Z</time>
      </trkpt>
      <trkpt lat="48.71198" lon="1.76422">
        <ele>168.19999694824</ele>
        <time>2014-07-18T09:22:14.000Z</time>
      </trkpt>
      <trkpt lat="48.71205" lon="1.76418">
        <ele>168.19999694824</ele>
        <time>2014-07-18T09:22:20.000Z</time>
      </trkpt>
      <trkpt lat="48.71207" lon="1.76417">
        <ele>168.19999694824</ele>
        <time>2014-07-18T09:22:21.000Z</time>
      </trkpt>
      <trkpt lat="48.71217" lon="1.76417">
        <ele>168.19999694824</ele>
        <time>2014-07-18T09:22:28.000Z</time>
      </trkpt>
      <trkpt lat="48.71227" lon="1.76415">
        <ele>168.19999694824</ele>
        <time>2014-07-18T09:22:37.000Z</time>
      </trkpt>
      <trkpt lat="48.71237" lon="1.76412">
        <ele>168.19999694824</ele>
        <time>2014-07-18T09:22:45.000Z</time>
      </trkpt>
      <trkpt lat="48.71241" lon="1.76411">
        <ele>168.19999694824</ele>
        <time>2014-07-18T09:22:48.000Z</time>
      </trkpt>
      <trkpt lat="48.71249" lon="1.76409">
        <ele>168</ele>
        <time>2014-07-18T09:22:54.000Z</time>
      </trkpt>
      <trkpt lat="48.71262" lon="1.76405">
        <ele>168</ele>
        <time>2014-07-18T09:23:03.000Z</time>
      </trkpt>
      <trkpt lat="48.71271" lon="1.76401">
        <ele>168</ele>
        <time>2014-07-18T09:23:10.000Z</time>
      </trkpt>
      <trkpt lat="48.71274" lon="1.764">
        <ele>168</ele>
        <time>2014-07-18T09:23:16.000Z</time>
      </trkpt>
      <trkpt lat="48.71279" lon="1.764">
        <ele>167.80000305176</ele>
        <time>2014-07-18T09:23:22.000Z</time>
      </trkpt>
      <trkpt lat="48.71282" lon="1.764">
        <ele>167.80000305176</ele>
        <time>2014-07-18T09:23:24.000Z</time>
      </trkpt>
      <trkpt lat="48.71297" lon="1.76396">
        <ele>167.39999389648</ele>
        <time>2014-07-18T09:23:34.000Z</time>
      </trkpt>
      <trkpt lat="48.71317" lon="1.76391">
        <ele>166.80000305176</ele>
        <time>2014-07-18T09:23:47.000Z</time>
      </trkpt>
      <trkpt lat="48.71326" lon="1.76387">
        <ele>166.60000610352</ele>
        <time>2014-07-18T09:23:54.000Z</time>
      </trkpt>
      <trkpt lat="48.71337" lon="1.76384">
        <ele>166.39999389648</ele>
        <time>2014-07-18T09:24:02.000Z</time>
      </trkpt>
      <trkpt lat="48.71348" lon="1.7638">
        <ele>166.19999694824</ele>
        <time>2014-07-18T09:24:11.000Z</time>
      </trkpt>
      <trkpt lat="48.71359" lon="1.76374">
        <ele>166</ele>
        <time>2014-07-18T09:24:20.000Z</time>
      </trkpt>
      <trkpt lat="48.7137" lon="1.76372">
        <ele>166.19999694824</ele>
        <time>2014-07-18T09:24:28.000Z</time>
      </trkpt>
      <trkpt lat="48.71378" lon="1.7637">
        <ele>166.19999694824</ele>
        <time>2014-07-18T09:24:34.000Z</time>
      </trkpt>
      <trkpt lat="48.71383" lon="1.76369">
        <ele>166.39999389648</ele>
        <time>2014-07-18T09:24:38.000Z</time>
      </trkpt>
      <trkpt lat="48.71393" lon="1.76365">
        <ele>166.39999389648</ele>
        <time>2014-07-18T09:24:45.000Z</time>
      </trkpt>
      <trkpt lat="48.71407" lon="1.76362">
        <ele>166.39999389648</ele>
        <time>2014-07-18T09:24:54.000Z</time>
      </trkpt>
      <trkpt lat="48.71418" lon="1.76361">
        <ele>166.19999694824</ele>
        <time>2014-07-18T09:25:02.000Z</time>
      </trkpt>
      <trkpt lat="48.71432" lon="1.76361">
        <ele>166</ele>
        <time>2014-07-18T09:25:12.000Z</time>
      </trkpt>
      <trkpt lat="48.71442" lon="1.76362">
        <ele>165.80000305176</ele>
        <time>2014-07-18T09:25:19.000Z</time>
      </trkpt>
      <trkpt lat="48.71453" lon="1.76361">
        <ele>165.39999389648</ele>
        <time>2014-07-18T09:25:26.000Z</time>
      </trkpt>
      <trkpt lat="48.71468" lon="1.76359">
        <ele>164.80000305176</ele>
        <time>2014-07-18T09:25:36.000Z</time>
      </trkpt>
      <trkpt lat="48.71483" lon="1.76358">
        <ele>164.39999389648</ele>
        <time>2014-07-18T09:25:46.000Z</time>
      </trkpt>
      <trkpt lat="48.71492" lon="1.76358">
        <ele>164.39999389648</ele>
        <time>2014-07-18T09:25:52.000Z</time>
      </trkpt>
      <trkpt lat="48.71501" lon="1.76358">
        <ele>164.19999694824</ele>
        <time>2014-07-18T09:25:58.000Z</time>
      </trkpt>
      <trkpt lat="48.71511" lon="1.76356">
        <ele>164.19999694824</ele>
        <time>2014-07-18T09:26:05.000Z</time>
      </trkpt>
      <trkpt lat="48.71523" lon="1.76358">
        <ele>163.80000305176</ele>
        <time>2014-07-18T09:26:13.000Z</time>
      </trkpt>
      <trkpt lat="48.71534" lon="1.76358">
        <ele>163.39999389648</ele>
        <time>2014-07-18T09:26:20.000Z</time>
      </trkpt>
      <trkpt lat="48.71549" lon="1.76357">
        <ele>162.60000610352</ele>
        <time>2014-07-18T09:26:30.000Z</time>
      </trkpt>
      <trkpt lat="48.71561" lon="1.76351">
        <ele>162</ele>
        <time>2014-07-18T09:26:38.000Z</time>
      </trkpt>
      <trkpt lat="48.71573" lon="1.7635">
        <ele>161.39999389648</ele>
        <time>2014-07-18T09:26:46.000Z</time>
      </trkpt>
      <trkpt lat="48.71586" lon="1.76344">
        <ele>160.80000305176</ele>
        <time>2014-07-18T09:26:55.000Z</time>
      </trkpt>
      <trkpt lat="48.71597" lon="1.76339">
        <ele>160.39999389648</ele>
        <time>2014-07-18T09:27:03.000Z</time>
      </trkpt>
      <trkpt lat="48.71605" lon="1.76337">
        <ele>160</ele>
        <time>2014-07-18T09:27:10.000Z</time>
      </trkpt>
      <trkpt lat="48.71605" lon="1.76337">
        <ele>160</ele>
        <time>2014-07-18T09:27:11.000Z</time>
      </trkpt>
      <trkpt lat="48.71611" lon="1.76335">
        <ele>159.60000610352</ele>
        <time>2014-07-18T09:27:19.000Z</time>
      </trkpt>
      <trkpt lat="48.71618" lon="1.76333">
        <ele>159.39999389648</ele>
        <time>2014-07-18T09:27:24.000Z</time>
      </trkpt>
      <trkpt lat="48.71624" lon="1.76329">
        <ele>159.19999694824</ele>
        <time>2014-07-18T09:27:28.000Z</time>
      </trkpt>
      <trkpt lat="48.71629" lon="1.76326">
        <ele>159</ele>
        <time>2014-07-18T09:27:32.000Z</time>
      </trkpt>
      <trkpt lat="48.7164" lon="1.76323">
        <ele>158.60000610352</ele>
        <time>2014-07-18T09:27:39.000Z</time>
      </trkpt>
      <trkpt lat="48.71658" lon="1.76316">
        <ele>158</ele>
        <time>2014-07-18T09:27:50.000Z</time>
      </trkpt>
      <trkpt lat="48.71662" lon="1.76311">
        <ele>158</ele>
        <time>2014-07-18T09:27:54.000Z</time>
      </trkpt>
      <trkpt lat="48.7166" lon="1.76302">
        <ele>158</ele>
        <time>2014-07-18T09:27:59.000Z</time>
      </trkpt>
      <trkpt lat="48.71648" lon="1.76292">
        <ele>158.39999389648</ele>
        <time>2014-07-18T09:28:08.000Z</time>
      </trkpt>
      <trkpt lat="48.71641" lon="1.76286">
        <ele>158.60000610352</ele>
        <time>2014-07-18T09:28:13.000Z</time>
      </trkpt>
      <trkpt lat="48.7163" lon="1.7628">
        <ele>159</ele>
        <time>2014-07-18T09:28:21.000Z</time>
      </trkpt>
      <trkpt lat="48.71621" lon="1.76274">
        <ele>159.39999389648</ele>
        <time>2014-07-18T09:28:28.000Z</time>
      </trkpt>
      <trkpt lat="48.71611" lon="1.76266">
        <ele>159.80000305176</ele>
        <time>2014-07-18T09:28:36.000Z</time>
      </trkpt>
      <trkpt lat="48.716" lon="1.76258">
        <ele>160.19999694824</ele>
        <time>2014-07-18T09:28:44.000Z</time>
      </trkpt>
      <trkpt lat="48.71582" lon="1.76248">
        <ele>161</ele>
        <time>2014-07-18T09:28:57.000Z</time>
      </trkpt>
      <trkpt lat="48.71569" lon="1.7624">
        <ele>161.60000610352</ele>
        <time>2014-07-18T09:29:07.000Z</time>
      </trkpt>
      <trkpt lat="48.71559" lon="1.76234">
        <ele>162.19999694824</ele>
        <time>2014-07-18T09:29:15.000Z</time>
      </trkpt>
      <trkpt lat="48.71548" lon="1.76227">
        <ele>162.60000610352</ele>
        <time>2014-07-18T09:29:24.000Z</time>
      </trkpt>
      <trkpt lat="48.71542" lon="1.76223">
        <ele>163</ele>
        <time>2014-07-18T09:29:29.000Z</time>
      </trkpt>
      <trkpt lat="48.71533" lon="1.76216">
        <ele>163.39999389648</ele>
        <time>2014-07-18T09:29:37.000Z</time>
      </trkpt>
      <trkpt lat="48.71527" lon="1.76209">
        <ele>163.60000610352</ele>
        <time>2014-07-18T09:29:42.000Z</time>
      </trkpt>
      <trkpt lat="48.71514" lon="1.76203">
        <ele>164.19999694824</ele>
        <time>2014-07-18T09:29:52.000Z</time>
      </trkpt>
      <trkpt lat="48.71503" lon="1.76196">
        <ele>164.60000610352</ele>
        <time>2014-07-18T09:30:00.000Z</time>
      </trkpt>
      <trkpt lat="48.71494" lon="1.76189">
        <ele>165</ele>
        <time>2014-07-18T09:30:07.000Z</time>
      </trkpt>
      <trkpt lat="48.71482" lon="1.76182">
        <ele>165.39999389648</ele>
        <time>2014-07-18T09:30:16.000Z</time>
      </trkpt>
      <trkpt lat="48.71474" lon="1.76176">
        <ele>165.60000610352</ele>
        <time>2014-07-18T09:30:22.000Z</time>
      </trkpt>
      <trkpt lat="48.71463" lon="1.76171">
        <ele>166</ele>
        <time>2014-07-18T09:30:30.000Z</time>
      </trkpt>
      <trkpt lat="48.71454" lon="1.76165">
        <ele>166.39999389648</ele>
        <time>2014-07-18T09:30:37.000Z</time>
      </trkpt>
      <trkpt lat="48.71443" lon="1.7616">
        <ele>166.80000305176</ele>
        <time>2014-07-18T09:30:45.000Z</time>
      </trkpt>
      <trkpt lat="48.71432" lon="1.76156">
        <ele>167.19999694824</ele>
        <time>2014-07-18T09:30:53.000Z</time>
      </trkpt>
      <trkpt lat="48.71424" lon="1.76151">
        <ele>167.60000610352</ele>
        <time>2014-07-18T09:30:59.000Z</time>
      </trkpt>
      <trkpt lat="48.71411" lon="1.76143">
        <ele>168.19999694824</ele>
        <time>2014-07-18T09:31:09.000Z</time>
      </trkpt>
      <trkpt lat="48.71396" lon="1.76134">
        <ele>169</ele>
        <time>2014-07-18T09:31:20.000Z</time>
      </trkpt>
      <trkpt lat="48.7139" lon="1.76131">
        <ele>169.19999694824</ele>
        <time>2014-07-18T09:31:25.000Z</time>
      </trkpt>
      <trkpt lat="48.71382" lon="1.76126">
        <ele>169.60000610352</ele>
        <time>2014-07-18T09:31:31.000Z</time>
      </trkpt>
      <trkpt lat="48.71375" lon="1.76122">
        <ele>170</ele>
        <time>2014-07-18T09:31:36.000Z</time>
      </trkpt>
      <trkpt lat="48.71365" lon="1.76118">
        <ele>170.39999389648</ele>
        <time>2014-07-18T09:31:43.000Z</time>
      </trkpt>
      <trkpt lat="48.71356" lon="1.76111">
        <ele>171</ele>
        <time>2014-07-18T09:31:51.000Z</time>
      </trkpt>
      <trkpt lat="48.71346" lon="1.76104">
        <ele>171.39999389648</ele>
        <time>2014-07-18T09:31:59.000Z</time>
      </trkpt>
      <trkpt lat="48.71339" lon="1.76099">
        <ele>171.60000610352</ele>
        <time>2014-07-18T09:32:05.000Z</time>
      </trkpt>
      <trkpt lat="48.71328" lon="1.76093">
        <ele>171.80000305176</ele>
        <time>2014-07-18T09:32:13.000Z</time>
      </trkpt>
      <trkpt lat="48.71322" lon="1.76092">
        <ele>171.80000305176</ele>
        <time>2014-07-18T09:32:18.000Z</time>
      </trkpt>
      <trkpt lat="48.71311" lon="1.76085">
        <ele>172.19999694824</ele>
        <time>2014-07-18T09:32:25.000Z</time>
      </trkpt>
      <trkpt lat="48.71301" lon="1.76078">
        <ele>172.39999389648</ele>
        <time>2014-07-18T09:32:32.000Z</time>
      </trkpt>
      <trkpt lat="48.71291" lon="1.76071">
        <ele>172.80000305176</ele>
        <time>2014-07-18T09:32:39.000Z</time>
      </trkpt>
      <trkpt lat="48.71279" lon="1.76064">
        <ele>172.80000305176</ele>
        <time>2014-07-18T09:32:48.000Z</time>
      </trkpt>
      <trkpt lat="48.71266" lon="1.76055">
        <ele>173</ele>
        <time>2014-07-18T09:32:57.000Z</time>
      </trkpt>
      <trkpt lat="48.71253" lon="1.76044">
        <ele>173.19999694824</ele>
        <time>2014-07-18T09:33:08.000Z</time>
      </trkpt>
      <trkpt lat="48.71238" lon="1.76035">
        <ele>173.39999389648</ele>
        <time>2014-07-18T09:33:19.000Z</time>
      </trkpt>
      <trkpt lat="48.71224" lon="1.76023">
        <ele>173.60000610352</ele>
        <time>2014-07-18T09:33:30.000Z</time>
      </trkpt>
      <trkpt lat="48.71219" lon="1.76021">
        <ele>173.60000610352</ele>
        <time>2014-07-18T09:33:34.000Z</time>
      </trkpt>
      <trkpt lat="48.71208" lon="1.76012">
        <ele>173.80000305176</ele>
        <time>2014-07-18T09:33:43.000Z</time>
      </trkpt>
      <trkpt lat="48.71198" lon="1.76007">
        <ele>173.80000305176</ele>
        <time>2014-07-18T09:33:50.000Z</time>
      </trkpt>
      <trkpt lat="48.71182" lon="1.76">
        <ele>174</ele>
        <time>2014-07-18T09:34:01.000Z</time>
      </trkpt>
      <trkpt lat="48.71167" lon="1.75997">
        <ele>174.19999694824</ele>
        <time>2014-07-18T09:34:11.000Z</time>
      </trkpt>
      <trkpt lat="48.71163" lon="1.75995">
        <ele>174.19999694824</ele>
        <time>2014-07-18T09:34:14.000Z</time>
      </trkpt>
      <trkpt lat="48.71151" lon="1.75992">
        <ele>174.39999389648</ele>
        <time>2014-07-18T09:34:22.000Z</time>
      </trkpt>
      <trkpt lat="48.71141" lon="1.7599">
        <ele>174.60000610352</ele>
        <time>2014-07-18T09:34:29.000Z</time>
      </trkpt>
      <trkpt lat="48.71137" lon="1.75987">
        <ele>174.60000610352</ele>
        <time>2014-07-18T09:34:33.000Z</time>
      </trkpt>
      <trkpt lat="48.71125" lon="1.75985">
        <ele>174.80000305176</ele>
        <time>2014-07-18T09:34:41.000Z</time>
      </trkpt>
      <trkpt lat="48.71107" lon="1.7598">
        <ele>175</ele>
        <time>2014-07-18T09:34:53.000Z</time>
      </trkpt>
      <trkpt lat="48.71096" lon="1.75977">
        <ele>175.39999389648</ele>
        <time>2014-07-18T09:35:00.000Z</time>
      </trkpt>
      <trkpt lat="48.71085" lon="1.75974">
        <ele>175.60000610352</ele>
        <time>2014-07-18T09:35:07.000Z</time>
      </trkpt>
      <trkpt lat="48.71071" lon="1.75971">
        <ele>175.60000610352</ele>
        <time>2014-07-18T09:35:16.000Z</time>
      </trkpt>
      <trkpt lat="48.71055" lon="1.75967">
        <ele>175.80000305176</ele>
        <time>2014-07-18T09:35:27.000Z</time>
      </trkpt>
      <trkpt lat="48.71042" lon="1.75965">
        <ele>175.80000305176</ele>
        <time>2014-07-18T09:35:35.000Z</time>
      </trkpt>
      <trkpt lat="48.71028" lon="1.75961">
        <ele>176</ele>
        <time>2014-07-18T09:35:44.000Z</time>
      </trkpt>
      <trkpt lat="48.71018" lon="1.75959">
        <ele>176</ele>
        <time>2014-07-18T09:35:52.000Z</time>
      </trkpt>
      <trkpt lat="48.71006" lon="1.75956">
        <ele>175.60000610352</ele>
        <time>2014-07-18T09:36:00.000Z</time>
      </trkpt>
      <trkpt lat="48.70993" lon="1.75951">
        <ele>175.39999389648</ele>
        <time>2014-07-18T09:36:08.000Z</time>
      </trkpt>
      <trkpt lat="48.70984" lon="1.75948">
        <ele>175.19999694824</ele>
        <time>2014-07-18T09:36:14.000Z</time>
      </trkpt>
      <trkpt lat="48.70968" lon="1.75944">
        <ele>174.80000305176</ele>
        <time>2014-07-18T09:36:24.000Z</time>
      </trkpt>
      <trkpt lat="48.70952" lon="1.7594">
        <ele>174.60000610352</ele>
        <time>2014-07-18T09:36:35.000Z</time>
      </trkpt>
      <trkpt lat="48.7094" lon="1.75937">
        <ele>174.39999389648</ele>
        <time>2014-07-18T09:36:43.000Z</time>
      </trkpt>
      <trkpt lat="48.7093" lon="1.75934">
        <ele>174.19999694824</ele>
        <time>2014-07-18T09:36:50.000Z</time>
      </trkpt>
      <trkpt lat="48.70916" lon="1.75931">
        <ele>174.19999694824</ele>
        <time>2014-07-18T09:37:00.000Z</time>
      </trkpt>
      <trkpt lat="48.70905" lon="1.75927">
        <ele>174</ele>
        <time>2014-07-18T09:37:07.000Z</time>
      </trkpt>
      <trkpt lat="48.70891" lon="1.75922">
        <ele>174</ele>
        <time>2014-07-18T09:37:17.000Z</time>
      </trkpt>
      <trkpt lat="48.70877" lon="1.75916">
        <ele>174</ele>
        <time>2014-07-18T09:37:27.000Z</time>
      </trkpt>
      <trkpt lat="48.70861" lon="1.75907">
        <ele>174</ele>
        <time>2014-07-18T09:37:39.000Z</time>
      </trkpt>
      <trkpt lat="48.70851" lon="1.75903">
        <ele>174</ele>
        <time>2014-07-18T09:37:46.000Z</time>
      </trkpt>
      <trkpt lat="48.70848" lon="1.75903">
        <ele>174</ele>
        <time>2014-07-18T09:37:48.000Z</time>
      </trkpt>
      <trkpt lat="48.70848" lon="1.75904">
        <ele>174</ele>
        <time>2014-07-18T09:37:51.000Z</time>
      </trkpt>
      <trkpt lat="48.7084" lon="1.75901">
        <ele>173.80000305176</ele>
        <time>2014-07-18T09:38:01.000Z</time>
      </trkpt>
      <trkpt lat="48.70832" lon="1.75897">
        <ele>173.80000305176</ele>
        <time>2014-07-18T09:38:06.000Z</time>
      </trkpt>
      <trkpt lat="48.70823" lon="1.75891">
        <ele>173.60000610352</ele>
        <time>2014-07-18T09:38:13.000Z</time>
      </trkpt>
      <trkpt lat="48.70815" lon="1.75886">
        <ele>173.60000610352</ele>
        <time>2014-07-18T09:38:20.000Z</time>
      </trkpt>
      <trkpt lat="48.70807" lon="1.75877">
        <ele>173.39999389648</ele>
        <time>2014-07-18T09:38:28.000Z</time>
      </trkpt>
      <trkpt lat="48.70796" lon="1.75868">
        <ele>173.39999389648</ele>
        <time>2014-07-18T09:38:37.000Z</time>
      </trkpt>
      <trkpt lat="48.7079" lon="1.75863">
        <ele>173.19999694824</ele>
        <time>2014-07-18T09:38:43.000Z</time>
      </trkpt>
      <trkpt lat="48.70788" lon="1.75862">
        <ele>173.19999694824</ele>
        <time>2014-07-18T09:38:47.000Z</time>
      </trkpt>
      <trkpt lat="48.7078" lon="1.75851">
        <ele>173.19999694824</ele>
        <time>2014-07-18T09:40:04.000Z</time>
      </trkpt>
      <trkpt lat="48.70774" lon="1.75842">
        <ele>173</ele>
        <time>2014-07-18T09:40:09.000Z</time>
      </trkpt>
      <trkpt lat="48.70773" lon="1.7584">
        <ele>173</ele>
        <time>2014-07-18T09:40:10.000Z</time>
      </trkpt>
      <trkpt lat="48.70763" lon="1.75828">
        <ele>173</ele>
        <time>2014-07-18T09:40:18.000Z</time>
      </trkpt>
      <trkpt lat="48.70756" lon="1.75817">
        <ele>173</ele>
        <time>2014-07-18T09:40:25.000Z</time>
      </trkpt>
      <trkpt lat="48.70748" lon="1.75805">
        <ele>173.19999694824</ele>
        <time>2014-07-18T09:40:33.000Z</time>
      </trkpt>
      <trkpt lat="48.70744" lon="1.758">
        <ele>173.19999694824</ele>
        <time>2014-07-18T09:40:39.000Z</time>
      </trkpt>
      <trkpt lat="48.7074" lon="1.75793">
        <ele>173.39999389648</ele>
        <time>2014-07-18T09:40:47.000Z</time>
      </trkpt>
      <trkpt lat="48.70733" lon="1.75784">
        <ele>173.39999389648</ele>
        <time>2014-07-18T09:40:52.000Z</time>
      </trkpt>
      <trkpt lat="48.70733" lon="1.75783">
        <ele>173.39999389648</ele>
        <time>2014-07-18T09:40:55.000Z</time>
      </trkpt>
      <trkpt lat="48.70729" lon="1.75777">
        <ele>173.60000610352</ele>
        <time>2014-07-18T09:41:09.000Z</time>
      </trkpt>
      <trkpt lat="48.70722" lon="1.75765">
        <ele>173.60000610352</ele>
        <time>2014-07-18T09:41:16.000Z</time>
      </trkpt>
      <trkpt lat="48.70712" lon="1.75749">
        <ele>173.80000305176</ele>
        <time>2014-07-18T09:41:26.000Z</time>
      </trkpt>
      <trkpt lat="48.70703" lon="1.75736">
        <ele>174</ele>
        <time>2014-07-18T09:41:35.000Z</time>
      </trkpt>
      <trkpt lat="48.70694" lon="1.75725">
        <ele>174.19999694824</ele>
        <time>2014-07-18T09:41:43.000Z</time>
      </trkpt>
      <trkpt lat="48.70689" lon="1.75717">
        <ele>174.19999694824</ele>
        <time>2014-07-18T09:41:49.000Z</time>
      </trkpt>
      <trkpt lat="48.70681" lon="1.75707">
        <ele>175</ele>
        <time>2014-07-18T09:41:58.000Z</time>
      </trkpt>
      <trkpt lat="48.70673" lon="1.75698">
        <ele>176.19999694824</ele>
        <time>2014-07-18T09:42:06.000Z</time>
      </trkpt>
      <trkpt lat="48.70664" lon="1.7569">
        <ele>177.39999389648</ele>
        <time>2014-07-18T09:42:13.000Z</time>
      </trkpt>
      <trkpt lat="48.70654" lon="1.75687">
        <ele>178.60000610352</ele>
        <time>2014-07-18T09:42:19.000Z</time>
      </trkpt>
      <trkpt lat="48.70647" lon="1.75678">
        <ele>179.39999389648</ele>
        <time>2014-07-18T09:42:26.000Z</time>
      </trkpt>
      <trkpt lat="48.70643" lon="1.75676">
        <ele>180</ele>
        <time>2014-07-18T09:42:32.000Z</time>
      </trkpt>
      <trkpt lat="48.70636" lon="1.75654">
        <ele>181.19999694824</ele>
        <time>2014-07-18T09:44:17.000Z</time>
      </trkpt>
      <trkpt lat="48.70636" lon="1.75642">
        <ele>180.80000305176</ele>
        <time>2014-07-18T09:44:22.000Z</time>
      </trkpt>
      <trkpt lat="48.70642" lon="1.75626">
        <ele>179.80000305176</ele>
        <time>2014-07-18T09:44:30.000Z</time>
      </trkpt>
      <trkpt lat="48.70648" lon="1.75608">
        <ele>178.80000305176</ele>
        <time>2014-07-18T09:44:39.000Z</time>
      </trkpt>
      <trkpt lat="48.70655" lon="1.75593">
        <ele>178</ele>
        <time>2014-07-18T09:44:48.000Z</time>
      </trkpt>
      <trkpt lat="48.70661" lon="1.7558">
        <ele>177.39999389648</ele>
        <time>2014-07-18T09:44:56.000Z</time>
      </trkpt>
      <trkpt lat="48.70666" lon="1.7557">
        <ele>176.80000305176</ele>
        <time>2014-07-18T09:45:03.000Z</time>
      </trkpt>
      <trkpt lat="48.70671" lon="1.7556">
        <ele>175.39999389648</ele>
        <time>2014-07-18T09:45:11.000Z</time>
      </trkpt>
      <trkpt lat="48.70672" lon="1.75555">
        <ele>174.80000305176</ele>
        <time>2014-07-18T09:45:15.000Z</time>
      </trkpt>
      <trkpt lat="48.70675" lon="1.75548">
        <ele>174.60000610352</ele>
        <time>2014-07-18T09:45:19.000Z</time>
      </trkpt>
      <trkpt lat="48.70678" lon="1.75542">
        <ele>174.39999389648</ele>
        <time>2014-07-18T09:45:22.000Z</time>
      </trkpt>
      <trkpt lat="48.70682" lon="1.75538">
        <ele>174.19999694824</ele>
        <time>2014-07-18T09:45:26.000Z</time>
      </trkpt>
      <trkpt lat="48.70685" lon="1.75531">
        <ele>174</ele>
        <time>2014-07-18T09:45:30.000Z</time>
      </trkpt>
      <trkpt lat="48.70686" lon="1.75528">
        <ele>174</ele>
        <time>2014-07-18T09:45:32.000Z</time>
      </trkpt>
    </trkseg>
  </trk>
</gpx>